Time,TemperatureF,DewpointF,PressureIn,WindDirection,WindDirectionDegrees,WindSpeedMPH,WindSpeedGustMPH,Humidity,HourlyPrecipIn,Conditions,Clouds,dailyrainin,SolarRadiationWatts/m^2,SoftwareType,DateUTC
2013-11-06 00:01:00,51.6,32.7,30.13,South,188,6.1,8.7,48,0.00,,,0.00,0.43,VWS V14.01,2013-11-06 05:01:00,
2013-11-06 00:02:00,52.2,32.4,30.15,South,183,11.4,11.4,47,0.00,,,0.00,0.00,VWS V14.01,2013-11-06 05:02:00,
2013-11-06 00:03:00,52.3,32.5,30.14,South,191,9.9,11.4,47,0.00,,,0.00,0.43,VWS V14.01,2013-11-06 05:03:00,
2013-11-06 00:06:00,52.9,33.5,30.14,SSW,200,11.6,11.6,47,0.00,,,0.00,0.00,VWS V14.01,2013-11-06 05:06:00,
2013-11-06 00:07:00,52.2,32.6,30.13,South,184,8.3,11.6,47,0.00,,,0.00,0.00,VWS V14.01,2013-11-06 05:07:00,
2013-11-06 00:08:00,52.1,32.3,30.13,South,187,10.9,11.6,47,0.00,,,0.00,0.00,VWS V14.01,2013-11-06 05:08:00,
2013-11-06 00:09:00,52.2,32.7,30.13,South,186,7.8,11.6,47,0.00,,,0.00,0.43,VWS V14.01,2013-11-06 05:09:00,
2013-11-06 00:11:00,52.5,33.0,30.13,SSW,205,9.7,11.6,47,0.00,,,0.00,0.43,VWS V14.01,2013-11-06 05:11:00,
2013-11-06 00:13:00,52.3,32.6,30.13,SSW,198,10.0,11.6,47,0.00,,,0.00,0.00,VWS V14.01,2013-11-06 05:13:00,
2013-11-06 00:15:00,51.6,31.9,30.13,SSW,192,6.8,11.6,47,0.00,,,0.00,0.73,VWS V14.01,2013-11-06 05:15:00,
2013-11-06 00:16:00,52.1,32.5,30.14,SSW,192,6.6,11.6,47,0.00,,,0.00,0.00,VWS V14.01,2013-11-06 05:16:00,
2013-11-06 00:17:00,51.9,32.3,30.12,South,185,8.0,11.6,47,0.00,,,0.00,0.00,VWS V14.01,2013-11-06 05:17:00,
2013-11-06 00:18:00,52.0,32.4,30.12,SSW,196,6.3,11.6,47,0.00,,,0.00,0.00,VWS V14.01,2013-11-06 05:18:00,
2013-11-06 00:21:00,52.2,33.1,30.15,South,175,8.7,11.6,48,0.00,,,0.00,0.00,VWS V14.01,2013-11-06 05:21:00,
2013-11-06 00:22:00,51.7,32.5,30.12,South,191,8.0,11.6,48,0.00,,,0.00,0.06,VWS V14.01,2013-11-06 05:22:00,
2013-11-06 00:23:00,52.2,33.0,30.12,South,185,10.0,11.6,48,0.00,,,0.00,0.12,VWS V14.01,2013-11-06 05:23:00,
2013-11-06 00:25:00,51.7,32.6,30.13,South,183,6.6,11.6,48,0.00,,,0.00,0.00,VWS V14.01,2013-11-06 05:25:00,
2013-11-06 00:28:00,51.6,32.8,30.11,South,186,8.3,11.6,48,0.00,,,0.00,0.00,VWS V14.01,2013-11-06 05:28:00,
2013-11-06 00:30:00,52.0,33.0,30.11,South,177,6.9,11.6,48,0.00,,,0.00,0.00,VWS V14.01,2013-11-06 05:30:00,
2013-11-06 00:34:00,51.6,32.9,30.11,South,184,8.0,11.6,49,0.00,,,0.00,0.43,VWS V14.01,2013-11-06 05:34:00,
2013-11-06 00:35:00,51.4,33.5,30.15,SSE,164,6.3,11.6,50,0.00,,,0.00,0.00,VWS V14.01,2013-11-06 05:35:00,
2013-11-06 00:36:00,51.4,33.5,30.15,SSE,164,6.3,11.6,50,0.00,,,0.00,0.00,VWS V14.01,2013-11-06 05:36:00,
2013-11-06 00:37:00,51.5,33.2,30.12,South,180,6.4,11.6,50,0.00,,,0.00,0.00,VWS V14.01,2013-11-06 05:37:00,
2013-11-06 00:40:00,52.1,33.2,30.12,South,184,8.3,11.6,48,0.00,,,0.00,0.00,VWS V14.01,2013-11-06 05:40:00,
2013-11-06 00:41:00,52.1,33.2,30.12,South,184,8.3,11.6,48,0.00,,,0.00,0.00,VWS V14.01,2013-11-06 05:41:00,
2013-11-06 00:42:00,52.4,33.7,30.11,South,170,8.0,11.6,49,0.00,,,0.00,0.00,VWS V14.01,2013-11-06 05:42:00,
2013-11-06 00:43:00,51.8,32.7,30.11,South,179,8.7,11.6,48,0.00,,,0.00,0.00,VWS V14.01,2013-11-06 05:43:00,
2013-11-06 00:45:00,51.6,33.3,30.12,South,180,6.1,11.6,50,0.00,,,0.00,0.00,VWS V14.01,2013-11-06 05:45:00,
2013-11-06 00:48:00,52.3,32.5,30.13,SSW,197,9.3,11.6,47,0.00,,,0.00,0.00,VWS V14.01,2013-11-06 05:48:00,
2013-11-06 00:49:00,51.9,32.3,30.12,South,176,9.3,11.6,47,0.00,,,0.00,0.00,VWS V14.01,2013-11-06 05:49:00,
2013-11-06 00:53:00,52.0,32.4,30.10,South,174,8.7,11.6,47,0.00,,,0.00,0.00,VWS V14.01,2013-11-06 05:53:00,
2013-11-06 00:54:00,51.9,32.2,30.11,South,191,9.2,11.6,47,0.00,,,0.00,0.00,VWS V14.01,2013-11-06 05:54:00,
2013-11-06 00:55:00,52.0,32.0,30.12,SSW,208,9.9,11.6,46,0.00,,,0.00,0.00,VWS V14.01,2013-11-06 05:55:00,
2013-11-06 00:56:00,51.9,32.1,30.11,South,186,8.0,11.6,47,0.00,,,0.00,0.00,VWS V14.01,2013-11-06 05:56:00,
2013-11-06 00:57:00,52.0,31.8,30.11,SSW,194,11.4,11.6,46,0.00,,,0.00,0.43,VWS V14.01,2013-11-06 05:57:00,
2013-11-06 01:00:00,51.9,32.1,30.10,SSW,197,7.5,11.6,47,0.00,,,0.00,0.00,VWS V14.01,2013-11-06 06:00:00,
2013-11-06 01:01:00,51.6,31.9,30.11,South,173,8.0,11.6,47,0.00,,,0.00,0.00,VWS V14.01,2013-11-06 06:01:00,
2013-11-06 01:03:00,52.2,31.8,30.11,South,184,9.7,11.6,46,0.00,,,0.00,0.12,VWS V14.01,2013-11-06 06:03:00,
2013-11-06 01:06:00,52.0,31.8,30.10,South,170,8.1,11.6,46,0.00,,,0.00,0.00,VWS V14.01,2013-11-06 06:06:00,
2013-11-06 01:07:00,52.1,32.1,30.10,South,189,8.1,11.6,46,0.00,,,0.00,0.00,VWS V14.01,2013-11-06 06:07:00,
2013-11-06 01:08:00,51.9,32.0,30.09,South,188,7.1,11.6,46,0.00,,,0.00,0.00,VWS V14.01,2013-11-06 06:08:00,
2013-11-06 01:10:00,52.0,31.7,30.11,South,186,9.5,11.6,46,0.00,,,0.00,0.00,VWS V14.01,2013-11-06 06:10:00,
2013-11-06 01:12:00,52.1,31.4,30.10,SSW,201,10.2,11.6,45,0.00,,,0.00,0.00,VWS V14.01,2013-11-06 06:12:00,
2013-11-06 01:13:00,51.4,31.6,30.10,South,179,5.1,11.6,46,0.00,,,0.00,0.00,VWS V14.01,2013-11-06 06:13:00,
2013-11-06 01:16:00,52.8,31.0,30.09,South,174,11.7,12.6,43,0.00,,,0.00,0.00,VWS V14.01,2013-11-06 06:16:00,
2013-11-06 01:17:00,52.0,31.3,30.10,SSW,206,6.9,12.6,45,0.00,,,0.00,0.00,VWS V14.01,2013-11-06 06:17:00,
2013-11-06 01:18:00,52.5,31.2,30.09,South,187,11.6,12.6,44,0.00,,,0.00,0.00,VWS V14.01,2013-11-06 06:18:00,
2013-11-06 01:21:00,51.9,31.2,30.10,South,191,6.4,12.6,45,0.00,,,0.00,0.00,VWS V14.01,2013-11-06 06:21:00,
2013-11-06 01:22:00,52.0,31.3,30.09,SSW,197,10.0,12.6,45,0.00,,,0.00,0.00,VWS V14.01,2013-11-06 06:22:00,
2013-11-06 01:23:00,52.2,31.1,30.10,SSW,192,9.5,12.6,44,0.00,,,0.00,0.00,VWS V14.01,2013-11-06 06:23:00,
2013-11-06 01:24:00,51.9,31.1,30.10,SSW,192,7.5,12.6,45,0.00,,,0.00,0.00,VWS V14.01,2013-11-06 06:24:00,
2013-11-06 01:28:00,52.5,31.0,30.13,South,172,9.0,12.6,44,0.00,,,0.00,0.00,VWS V14.01,2013-11-06 06:28:00,
2013-11-06 01:29:00,52.2,31.0,30.09,South,183,9.9,12.6,44,0.00,,,0.00,0.00,VWS V14.01,2013-11-06 06:29:00,
2013-11-06 01:30:00,52.1,30.8,30.09,SSW,194,8.5,12.6,44,0.00,,,0.00,0.00,VWS V14.01,2013-11-06 06:30:00,
2013-11-06 01:31:00,51.8,30.6,30.10,South,182,4.9,12.6,44,0.00,,,0.00,0.00,VWS V14.01,2013-11-06 06:31:00,
2013-11-06 01:34:00,52.7,30.6,30.09,South,182,6.4,12.6,43,0.00,,,0.00,0.00,VWS V14.01,2013-11-06 06:34:00,
2013-11-06 01:35:00,52.8,30.6,30.09,South,190,10.0,12.6,42,0.00,,,0.00,0.00,VWS V14.01,2013-11-06 06:35:00,
2013-11-06 01:36:00,52.5,30.0,30.10,SSW,206,9.7,12.6,42,0.00,,,0.00,0.00,VWS V14.01,2013-11-06 06:36:00,
2013-11-06 01:40:00,52.6,30.3,30.09,South,179,8.3,12.6,42,0.00,,,0.00,0.00,VWS V14.01,2013-11-06 06:40:00,
2013-11-06 01:41:00,52.4,30.3,30.09,SSW,192,8.7,12.6,43,0.00,,,0.00,0.00,VWS V14.01,2013-11-06 06:41:00,
2013-11-06 01:42:00,51.9,30.2,30.09,SSW,202,8.5,12.6,43,0.00,,,0.00,0.00,VWS V14.01,2013-11-06 06:42:00,
2013-11-06 01:43:00,52.8,30.5,30.09,SSW,198,10.0,12.6,42,0.00,,,0.00,0.00,VWS V14.01,2013-11-06 06:43:00,
2013-11-06 01:45:00,52.5,30.2,30.09,SSW,203,10.2,12.6,42,0.00,,,0.00,0.00,VWS V14.01,2013-11-06 06:45:00,
2013-11-06 01:46:00,52.1,30.2,30.09,South,181,6.6,12.6,43,0.00,,,0.00,0.00,VWS V14.01,2013-11-06 06:46:00,
2013-11-06 01:47:00,52.0,30.5,30.09,SSW,202,6.4,12.6,44,0.00,,,0.00,0.00,VWS V14.01,2013-11-06 06:47:00,
2013-11-06 01:48:00,52.0,30.5,30.09,SSW,202,6.4,12.6,44,0.00,,,0.00,0.00,VWS V14.01,2013-11-06 06:48:00,
2013-11-06 01:49:00,51.9,30.2,30.09,South,179,7.6,12.6,43,0.00,,,0.00,0.00,VWS V14.01,2013-11-06 06:49:00,
2013-11-06 01:51:00,52.2,30.5,30.08,SSW,205,6.1,12.6,43,0.00,,,0.00,0.43,VWS V14.01,2013-11-06 06:51:00,
2013-11-06 01:53:00,52.5,30.2,30.08,SSW,198,11.2,12.6,42,0.00,,,0.00,0.00,VWS V14.01,2013-11-06 06:53:00,
2013-11-06 01:54:00,52.0,30.3,30.09,SSW,209,6.9,12.6,43,0.00,,,0.00,0.00,VWS V14.01,2013-11-06 06:54:00,
2013-11-06 01:55:00,52.2,30.3,30.09,SSW,206,9.7,12.6,43,0.00,,,0.00,0.00,VWS V14.01,2013-11-06 06:55:00,
2013-11-06 01:56:00,52.0,30.2,30.09,South,186,7.5,12.6,43,0.00,,,0.00,0.00,VWS V14.01,2013-11-06 06:56:00,
2013-11-06 01:57:00,52.1,30.4,30.09,South,191,7.1,12.6,43,0.00,,,0.00,0.00,VWS V14.01,2013-11-06 06:57:00,
2013-11-06 02:00:00,51.8,30.1,30.08,SSW,192,6.9,12.6,43,0.00,,,0.00,0.00,VWS V14.01,2013-11-06 07:00:00,
2013-11-06 02:01:00,52.0,30.5,30.08,SSW,202,7.1,12.6,43,0.00,,,0.00,0.00,VWS V14.01,2013-11-06 07:01:00,
2013-11-06 02:03:00,52.3,30.1,30.08,South,177,10.2,10.2,42,0.00,,,0.00,0.00,VWS V14.01,2013-11-06 07:03:00,
2013-11-06 02:04:00,51.8,29.8,30.08,South,182,8.5,10.2,42,0.00,,,0.00,0.06,VWS V14.01,2013-11-06 07:04:00,
2013-11-06 02:06:00,51.9,30.1,30.08,South,181,9.3,11.1,43,0.00,,,0.00,0.00,VWS V14.01,2013-11-06 07:06:00,
2013-11-06 02:07:00,51.9,30.4,30.08,South,187,8.3,8.3,43,0.00,,,0.00,0.00,VWS V14.01,2013-11-06 07:07:00,
2013-11-06 02:08:00,52.0,28.4,30.08,South,181,10.4,10.4,40,0.00,,,0.00,0.43,VWS V14.01,2013-11-06 07:08:00,
2013-11-06 02:10:00,51.8,30.5,30.08,South,187,9.3,9.3,44,0.00,,,0.00,0.43,VWS V14.01,2013-11-06 07:10:00,
2013-11-06 02:11:00,52.2,30.4,30.07,SSE,168,10.2,10.2,43,0.00,,,0.00,0.00,VWS V14.01,2013-11-06 07:11:00,
2013-11-06 02:13:00,51.7,30.5,30.08,SSW,198,8.7,9.2,44,0.00,,,0.00,0.00,VWS V14.01,2013-11-06 07:13:00,
2013-11-06 02:14:00,51.9,30.1,30.07,South,171,9.9,9.9,43,0.00,,,0.00,0.00,VWS V14.01,2013-11-06 07:14:00,
2013-11-06 02:15:00,51.8,30.2,30.07,SSW,195,8.3,9.9,43,0.00,,,0.00,0.00,VWS V14.01,2013-11-06 07:15:00,
2013-11-06 02:17:00,51.9,30.5,30.07,South,188,10.4,10.4,44,0.00,,,0.00,0.00,VWS V14.01,2013-11-06 07:17:00,
2013-11-06 02:18:00,52.0,27.6,30.07,SSE,167,8.8,9.5,39,0.00,,,0.00,0.00,VWS V14.01,2013-11-06 07:18:00,
2013-11-06 02:20:00,52.0,30.1,30.07,South,184,10.2,10.2,43,0.00,,,0.00,0.00,VWS V14.01,2013-11-06 07:20:00,
2013-11-06 02:21:00,52.2,30.0,30.07,South,188,8.8,10.2,42,0.00,,,0.00,0.00,VWS V14.01,2013-11-06 07:21:00,
2013-11-06 02:22:00,52.0,25.9,30.07,South,179,7.5,9.3,36,0.00,,,0.00,0.00,VWS V14.01,2013-11-06 07:22:00,
2013-11-06 02:23:00,52.0,29.9,30.07,SSW,202,10.7,12.9,42,0.00,,,0.00,0.00,VWS V14.01,2013-11-06 07:23:00,
2013-11-06 02:26:00,52.4,29.9,30.06,SSW,210,11.7,11.7,42,0.00,,,0.00,0.00,VWS V14.01,2013-11-06 07:26:00,
2013-11-06 02:27:00,52.4,30.1,30.06,South,185,10.5,11.7,42,0.00,,,0.00,0.06,VWS V14.01,2013-11-06 07:27:00,
2013-11-06 02:28:00,52.4,30.0,30.06,SSW,194,11.2,11.2,42,0.00,,,0.00,0.00,VWS V14.01,2013-11-06 07:28:00,
2013-11-06 02:29:00,52.3,29.8,30.06,South,182,10.7,11.2,42,0.00,,,0.00,0.00,VWS V14.01,2013-11-06 07:29:00,
2013-11-06 02:30:00,52.2,29.8,30.05,SSW,195,10.5,10.5,42,0.00,,,0.00,0.43,VWS V14.01,2013-11-06 07:30:00,
2013-11-06 02:32:00,52.3,29.7,30.06,South,191,10.7,11.2,42,0.00,,,0.00,0.00,VWS V14.01,2013-11-06 07:32:00,
2013-11-06 02:33:00,52.0,29.8,30.05,SSW,199,11.1,11.1,42,0.00,,,0.00,0.00,VWS V14.01,2013-11-06 07:33:00,
2013-11-06 02:34:00,52.0,29.8,30.05,SSW,199,11.1,11.1,42,0.00,,,0.00,0.00,VWS V14.01,2013-11-06 07:34:00,
2013-11-06 02:35:00,52.0,29.9,30.05,SSW,193,8.0,9.2,42,0.00,,,0.00,0.00,VWS V14.01,2013-11-06 07:35:00,
2013-11-06 02:37:00,52.0,29.9,30.06,South,183,8.1,10.4,42,0.00,,,0.00,0.73,VWS V14.01,2013-11-06 07:37:00,
2013-11-06 02:39:00,52.2,29.8,30.05,South,183,11.1,11.1,42,0.00,,,0.00,0.00,VWS V14.01,2013-11-06 07:39:00,
2013-11-06 02:41:00,52.1,30.0,30.05,SSW,208,10.4,10.4,42,0.00,,,0.00,0.00,VWS V14.01,2013-11-06 07:41:00,
2013-11-06 02:42:00,52.0,29.9,30.06,South,190,8.0,10.7,42,0.00,,,0.00,0.00,VWS V14.01,2013-11-06 07:42:00,
2013-11-06 02:44:00,52.1,30.1,30.06,SSW,207,10.0,10.0,43,0.00,,,0.00,0.00,VWS V14.01,2013-11-06 07:44:00,
2013-11-06 02:46:00,51.9,29.9,30.06,SSW,196,10.7,10.7,43,0.00,,,0.00,0.00,VWS V14.01,2013-11-06 07:46:00,
2013-11-06 02:48:00,51.8,30.3,30.06,SSW,205,8.0,10.7,44,0.00,,,0.00,0.00,VWS V14.01,2013-11-06 07:48:00,
2013-11-06 02:50:00,52.0,28.0,30.05,SSW,198,7.8,7.8,39,0.00,,,0.00,0.00,VWS V14.01,2013-11-06 07:50:00,
2013-11-06 02:51:00,52.0,30.4,30.07,SSW,211,6.9,7.8,43,0.00,,,0.00,0.00,VWS V14.01,2013-11-06 07:51:00,
2013-11-06 02:52:00,52.0,30.6,30.06,SSW,192,6.4,7.8,44,0.00,,,0.00,0.00,VWS V14.01,2013-11-06 07:52:00,
2013-11-06 02:54:00,52.2,30.4,30.06,South,183,8.1,8.1,43,0.00,,,0.00,0.00,VWS V14.01,2013-11-06 07:54:00,
2013-11-06 02:55:00,52.1,30.2,30.06,SSW,210,8.7,8.7,43,0.00,,,0.00,0.00,VWS V14.01,2013-11-06 07:55:00,
2013-11-06 02:57:00,52.0,30.7,30.05,SSW,208,8.5,8.5,44,0.00,,,0.00,0.12,VWS V14.01,2013-11-06 07:57:00,
2013-11-06 02:58:00,52.1,30.5,30.05,SSW,196,9.0,9.0,43,0.00,,,0.00,0.12,VWS V14.01,2013-11-06 07:58:00,
2013-11-06 02:59:00,52.7,28.7,30.05,SSW,211,12.3,12.3,39,0.00,,,0.00,0.00,VWS V14.01,2013-11-06 07:59:00,
2013-11-06 03:00:00,52.7,30.5,30.05,SSW,203,9.3,9.3,42,0.00,,,0.00,0.00,VWS V14.01,2013-11-06 08:00:00,
2013-11-06 03:03:00,52.4,30.4,30.06,SSW,200,8.7,11.2,43,0.00,,,0.00,0.00,VWS V14.01,2013-11-06 08:03:00,
2013-11-06 03:04:00,52.5,30.3,30.04,South,190,9.0,9.0,42,0.00,,,0.00,0.00,VWS V14.01,2013-11-06 08:04:00,
2013-11-06 03:05:00,53.0,30.2,30.05,SSW,199,9.2,9.2,41,0.00,,,0.00,0.00,VWS V14.01,2013-11-06 08:05:00,
2013-11-06 03:06:00,52.5,30.1,30.04,SSW,195,7.1,7.1,42,0.00,,,0.00,0.00,VWS V14.01,2013-11-06 08:06:00,
2013-11-06 03:10:00,52.6,29.7,30.04,SSW,197,10.4,11.1,41,0.00,,,0.00,0.00,VWS V14.01,2013-11-06 08:10:00,
2013-11-06 03:11:00,53.1,29.9,30.04,SSW,200,15.0,15.0,41,0.00,,,0.00,0.00,VWS V14.01,2013-11-06 08:11:00,
2013-11-06 03:12:00,52.7,29.8,30.04,SSW,199,9.9,12.1,41,0.00,,,0.00,0.00,VWS V14.01,2013-11-06 08:12:00,
2013-11-06 03:15:00,52.5,29.9,30.04,SSW,194,9.0,9.7,42,0.00,,,0.00,0.00,VWS V14.01,2013-11-06 08:15:00,
2013-11-06 03:16:00,52.7,30.0,30.04,South,183,8.8,9.0,42,0.00,,,0.00,0.00,VWS V14.01,2013-11-06 08:16:00,
2013-11-06 03:18:00,52.6,29.8,30.04,South,189,10.2,10.2,41,0.00,,,0.00,0.00,VWS V14.01,2013-11-06 08:18:00,
2013-11-06 03:19:00,52.8,29.6,30.02,SSW,199,11.6,11.6,41,0.00,,,0.00,0.00,VWS V14.01,2013-11-06 08:19:00,
2013-11-06 03:20:00,52.3,29.7,30.04,SSW,197,6.4,11.6,42,0.00,,,0.00,0.00,VWS V14.01,2013-11-06 08:20:00,
2013-11-06 03:21:00,52.2,29.8,30.04,SW,215,8.0,8.0,42,0.00,,,0.00,0.00,VWS V14.01,2013-11-06 08:21:00,
2013-11-06 03:22:00,53.1,30.2,30.04,SSW,198,14.6,14.6,41,0.00,,,0.00,0.00,VWS V14.01,2013-11-06 08:22:00,
2013-11-06 03:25:00,52.3,30.2,30.04,SSW,211,7.1,10.7,43,0.00,,,0.00,0.00,VWS V14.01,2013-11-06 08:25:00,
2013-11-06 03:26:00,52.5,30.3,30.04,South,179,8.0,8.0,42,0.00,,,0.00,0.00,VWS V14.01,2013-11-06 08:26:00,
2013-11-06 03:27:00,52.7,30.2,30.04,SSW,199,13.8,13.8,42,0.00,,,0.00,0.43,VWS V14.01,2013-11-06 08:27:00,
2013-11-06 03:31:00,52.5,30.2,30.03,South,190,10.7,10.7,42,0.00,,,0.00,0.00,VWS V14.01,2013-11-06 08:31:00,
2013-11-06 03:32:00,52.3,30.2,30.03,South,190,8.5,10.7,42,0.00,,,0.00,0.00,VWS V14.01,2013-11-06 08:32:00,
2013-11-06 03:33:00,52.5,30.4,30.03,SSW,208,10.9,10.9,42,0.00,,,0.00,0.00,VWS V14.01,2013-11-06 08:33:00,
2013-11-06 03:37:00,52.2,30.3,30.06,SW,214,8.8,8.8,43,0.00,,,0.00,0.00,VWS V14.01,2013-11-06 08:37:00,
2013-11-06 03:38:00,52.5,30.3,30.04,SSW,202,12.8,12.8,42,0.00,,,0.00,0.00,VWS V14.01,2013-11-06 08:38:00,
2013-11-06 03:39:00,52.3,30.2,30.03,SW,216,11.1,12.8,43,0.00,,,0.00,0.00,VWS V14.01,2013-11-06 08:39:00,
2013-11-06 03:43:00,51.8,30.0,30.02,South,190,9.9,12.6,43,0.00,,,0.00,0.00,VWS V14.01,2013-11-06 08:43:00,
2013-11-06 03:44:00,52.5,30.7,30.02,South,176,8.3,9.7,43,0.00,,,0.00,0.00,VWS V14.01,2013-11-06 08:44:00,
2013-11-06 03:47:00,52.5,28.6,30.02,South,182,12.4,12.4,40,0.00,,,0.00,0.00,VWS V14.01,2013-11-06 08:47:00,
2013-11-06 03:48:00,52.2,30.2,30.02,South,178,11.1,11.1,43,0.00,,,0.00,0.00,VWS V14.01,2013-11-06 08:48:00,
2013-11-06 03:49:00,52.0,30.4,30.02,SSW,198,7.6,11.1,43,0.00,,,0.00,0.00,VWS V14.01,2013-11-06 08:49:00,
2013-11-06 03:50:00,52.0,30.4,30.02,SSW,200,7.6,7.6,43,0.00,,,0.00,0.00,VWS V14.01,2013-11-06 08:50:00,
2013-11-06 03:51:00,52.3,30.6,30.02,SSW,195,12.1,12.1,43,0.00,,,0.00,0.00,VWS V14.01,2013-11-06 08:51:00,
2013-11-06 03:52:00,52.8,30.7,30.02,South,191,14.6,14.6,43,0.00,,,0.00,0.00,VWS V14.01,2013-11-06 08:52:00,
2013-11-06 03:54:00,53.0,30.9,30.02,SSW,192,12.4,12.4,43,0.00,,,0.00,0.00,VWS V14.01,2013-11-06 08:54:00,
2013-11-06 03:55:00,52.4,30.5,30.01,SW,222,12.4,12.4,43,0.00,,,0.00,0.00,VWS V14.01,2013-11-06 08:55:00,
2013-11-06 03:56:00,52.4,30.6,30.01,SSW,205,10.0,10.0,43,0.00,,,0.00,0.00,VWS V14.01,2013-11-06 08:56:00,
2013-11-06 03:58:00,52.6,30.7,30.01,SW,217,8.8,10.5,43,0.00,,,0.00,0.00,VWS V14.01,2013-11-06 08:58:00,
2013-11-06 03:59:00,53.0,31.0,30.01,South,185,10.7,10.7,43,0.00,,,0.00,0.73,VWS V14.01,2013-11-06 08:59:00,
2013-11-06 04:00:00,53.0,31.0,30.01,South,185,10.7,10.7,43,0.00,,,0.00,0.73,VWS V14.01,2013-11-06 09:00:00,
2013-11-06 04:01:00,53.1,30.5,30.01,South,181,14.5,16.0,42,0.00,,,0.00,0.00,VWS V14.01,2013-11-06 09:01:00,
2013-11-06 04:02:00,53.0,30.2,30.01,SSW,196,13.3,16.0,41,0.00,,,0.00,0.00,VWS V14.01,2013-11-06 09:02:00,
2013-11-06 04:05:00,52.8,30.5,30.01,SSW,207,10.4,16.0,42,0.00,,,0.00,0.00,VWS V14.01,2013-11-06 09:05:00,
2013-11-06 04:06:00,52.7,30.4,30.02,SSW,193,9.2,16.0,42,0.00,,,0.00,0.43,VWS V14.01,2013-11-06 09:06:00,
2013-11-06 04:09:00,52.6,30.5,30.00,SSW,198,11.4,16.4,43,0.00,,,0.00,0.00,VWS V14.01,2013-11-06 09:09:00,
2013-11-06 04:10:00,52.5,30.4,30.01,South,175,10.7,16.4,43,0.00,,,0.00,0.00,VWS V14.01,2013-11-06 09:10:00,
2013-11-06 04:11:00,52.2,30.5,30.01,SSW,196,8.8,16.4,43,0.00,,,0.00,0.43,VWS V14.01,2013-11-06 09:11:00,
2013-11-06 04:12:00,52.5,31.2,30.00,South,183,6.6,16.4,44,0.00,,,0.00,0.06,VWS V14.01,2013-11-06 09:12:00,
2013-11-06 04:15:00,52.5,30.6,30.03,SSW,196,9.5,16.4,43,0.00,,,0.00,0.00,VWS V14.01,2013-11-06 09:15:00,
2013-11-06 04:16:00,52.4,30.9,30.01,SSW,207,11.6,16.4,44,0.00,,,0.00,0.00,VWS V14.01,2013-11-06 09:16:00,
2013-11-06 04:17:00,52.5,31.2,30.01,South,184,9.0,16.4,44,0.00,,,0.00,0.12,VWS V14.01,2013-11-06 09:17:00,
2013-11-06 04:18:00,52.5,28.7,30.00,South,190,12.8,16.4,40,0.00,,,0.00,0.00,VWS V14.01,2013-11-06 09:18:00,
2013-11-06 04:22:00,52.6,31.1,30.00,SSW,196,9.9,16.4,44,0.00,,,0.00,0.00,VWS V14.01,2013-11-06 09:22:00,
2013-11-06 04:23:00,52.4,30.9,29.99,SSW,213,10.4,16.4,44,0.00,,,0.00,0.12,VWS V14.01,2013-11-06 09:23:00,
2013-11-06 04:26:00,52.6,31.6,30.00,SSW,206,10.5,16.4,44,0.00,,,0.00,0.00,VWS V14.01,2013-11-06 09:26:00,
2013-11-06 04:28:00,52.8,31.4,30.00,SSW,205,12.3,16.4,44,0.00,,,0.00,0.00,VWS V14.01,2013-11-06 09:28:00,
2013-11-06 04:29:00,52.8,31.4,30.00,SSW,208,13.1,16.4,44,0.00,,,0.00,0.00,VWS V14.01,2013-11-06 09:29:00,
2013-11-06 04:30:00,52.4,31.5,30.00,SSW,201,11.1,16.4,45,0.00,,,0.00,0.00,VWS V14.01,2013-11-06 09:30:00,
2013-11-06 04:31:00,52.8,31.6,30.00,SSW,195,13.5,16.4,44,0.00,,,0.00,0.00,VWS V14.01,2013-11-06 09:31:00,
2013-11-06 04:35:00,52.6,31.3,30.00,SW,214,11.4,16.4,44,0.00,,,0.00,0.18,VWS V14.01,2013-11-06 09:35:00,
2013-11-06 04:36:00,52.6,31.7,29.99,SSW,206,10.7,16.4,45,0.00,,,0.00,0.00,VWS V14.01,2013-11-06 09:36:00,
2013-11-06 04:37:00,52.7,31.6,30.00,SSW,204,8.7,16.4,44,0.00,,,0.00,0.00,VWS V14.01,2013-11-06 09:37:00,
2013-11-06 04:40:00,52.6,31.8,29.98,SSW,203,9.0,16.4,45,0.00,,,0.00,0.00,VWS V14.01,2013-11-06 09:40:00,
2013-11-06 04:41:00,52.6,31.8,29.98,SSW,203,9.0,16.4,45,0.00,,,0.00,0.00,VWS V14.01,2013-11-06 09:41:00,
2013-11-06 04:42:00,52.8,32.0,29.99,SSW,198,10.5,16.4,45,0.00,,,0.00,0.00,VWS V14.01,2013-11-06 09:42:00,
2013-11-06 04:45:00,52.6,32.0,30.00,SSW,197,9.3,16.4,45,0.00,,,0.00,0.00,VWS V14.01,2013-11-06 09:45:00,
2013-11-06 04:46:00,52.5,31.8,29.99,SW,222,9.7,16.4,45,0.00,,,0.00,0.12,VWS V14.01,2013-11-06 09:46:00,
2013-11-06 04:47:00,52.2,32.0,30.00,SW,219,6.6,16.4,46,0.00,,,0.00,0.00,VWS V14.01,2013-11-06 09:47:00,
2013-11-06 04:49:00,53.0,32.5,29.98,SSW,194,9.7,16.4,45,0.00,,,0.00,0.00,VWS V14.01,2013-11-06 09:49:00,
2013-11-06 04:52:00,52.6,31.8,29.99,SSW,196,10.5,16.4,45,0.00,,,0.00,0.00,VWS V14.01,2013-11-06 09:52:00,
2013-11-06 04:53:00,52.8,32.3,30.00,SSW,196,9.9,16.4,45,0.00,,,0.00,0.00,VWS V14.01,2013-11-06 09:53:00,
2013-11-06 04:54:00,52.8,32.6,29.99,SW,222,10.5,16.4,46,0.00,,,0.00,0.43,VWS V14.01,2013-11-06 09:54:00,
2013-11-06 04:55:00,53.0,32.5,29.98,SSW,201,14.6,16.4,45,0.00,,,0.00,0.00,VWS V14.01,2013-11-06 09:55:00,
2013-11-06 04:58:00,52.5,32.6,30.00,SSW,199,7.6,16.4,47,0.00,,,0.00,0.73,VWS V14.01,2013-11-06 09:58:00,
2013-11-06 04:59:00,53.2,32.4,29.99,SSW,201,13.3,16.4,45,0.00,,,0.00,0.00,VWS V14.01,2013-11-06 09:59:00,
2013-11-06 05:00:00,53.0,32.4,29.99,SSW,209,10.5,16.4,45,0.00,,,0.00,0.00,VWS V14.01,2013-11-06 10:00:00,
2013-11-06 05:01:00,53.0,32.2,29.99,SSW,209,10.5,16.4,45,0.00,,,0.00,0.00,VWS V14.01,2013-11-06 10:01:00,
2013-11-06 05:03:00,53.2,32.5,29.99,SSW,206,10.5,12.1,45,0.00,,,0.00,0.00,VWS V14.01,2013-11-06 10:03:00,
2013-11-06 05:06:00,53.6,32.8,29.99,SW,220,12.4,13.1,45,0.00,,,0.00,0.00,VWS V14.01,2013-11-06 10:06:00,
2013-11-06 05:07:00,53.5,32.6,29.99,SSW,203,12.6,12.6,45,0.00,,,0.00,0.00,VWS V14.01,2013-11-06 10:07:00,
2013-11-06 05:08:00,53.1,32.7,30.00,SSW,202,10.9,11.2,46,0.00,,,0.00,0.00,VWS V14.01,2013-11-06 10:08:00,
2013-11-06 05:11:00,52.9,32.8,29.99,South,189,7.6,9.5,46,0.00,,,0.00,0.00,VWS V14.01,2013-11-06 10:11:00,
2013-11-06 05:12:00,53.0,32.9,29.99,SSW,197,9.5,10.5,46,0.00,,,0.00,0.00,VWS V14.01,2013-11-06 10:12:00,
2013-11-06 05:13:00,53.8,33.4,30.01,SSW,196,12.6,12.6,46,0.00,,,0.00,0.00,VWS V14.01,2013-11-06 10:13:00,
2013-11-06 05:17:00,53.2,33.0,30.00,SSW,198,9.5,11.1,46,0.00,,,0.00,0.00,VWS V14.01,2013-11-06 10:17:00,
2013-11-06 05:18:00,53.0,32.9,29.99,SW,218,8.1,9.7,46,0.00,,,0.00,0.00,VWS V14.01,2013-11-06 10:18:00,
2013-11-06 05:19:00,53.1,32.8,29.98,South,189,11.1,14.6,46,0.00,,,0.00,0.00,VWS V14.01,2013-11-06 10:19:00,
2013-11-06 05:21:00,53.4,33.0,29.98,SSW,204,10.9,10.9,46,0.00,,,0.00,0.00,VWS V14.01,2013-11-06 10:21:00,
2013-11-06 05:22:00,53.2,33.0,29.99,SSW,212,10.0,10.0,46,0.00,,,0.00,0.00,VWS V14.01,2013-11-06 10:22:00,
2013-11-06 05:23:00,53.2,33.1,29.99,SSW,207,8.5,10.0,46,0.00,,,0.00,0.00,VWS V14.01,2013-11-06 10:23:00,
2013-11-06 05:24:00,53.2,33.1,29.99,SSW,207,9.5,9.5,46,0.00,,,0.00,0.00,VWS V14.01,2013-11-06 10:24:00,
2013-11-06 05:25:00,53.2,32.9,29.99,SSW,208,7.5,9.5,46,0.00,,,0.00,0.00,VWS V14.01,2013-11-06 10:25:00,
2013-11-06 05:26:00,53.4,33.1,29.99,SSW,196,12.9,12.9,46,0.00,,,0.00,0.00,VWS V14.01,2013-11-06 10:26:00,
2013-11-06 05:27:00,53.2,33.0,29.98,SW,214,12.4,12.9,46,0.00,,,0.00,0.00,VWS V14.01,2013-11-06 10:27:00,
2013-11-06 05:28:00,53.1,33.0,29.99,SW,224,8.8,10.5,46,0.00,,,0.00,0.00,VWS V14.01,2013-11-06 10:28:00,
2013-11-06 05:29:00,53.0,33.1,29.99,SSW,203,8.1,8.8,46,0.00,,,0.00,0.00,VWS V14.01,2013-11-06 10:29:00,
2013-11-06 05:31:00,53.3,33.3,29.98,SSW,196,8.7,11.6,46,0.00,,,0.00,0.00,VWS V14.01,2013-11-06 10:31:00,
2013-11-06 05:32:00,53.0,33.4,29.99,SSW,200,7.3,8.7,47,0.00,,,0.00,0.00,VWS V14.01,2013-11-06 10:32:00,
2013-11-06 05:34:00,53.0,33.5,29.99,SSW,213,8.5,12.4,47,0.00,,,0.00,0.00,VWS V14.01,2013-11-06 10:34:00,
2013-11-06 05:35:00,53.0,33.8,29.99,SW,216,8.5,8.5,48,0.00,,,0.00,0.00,VWS V14.01,2013-11-06 10:35:00,
2013-11-06 05:37:00,53.3,33.8,29.98,SW,220,11.9,11.9,47,0.00,,,0.00,0.00,VWS V14.01,2013-11-06 10:37:00,
2013-11-06 05:38:00,53.3,33.9,29.99,SW,218,11.1,11.1,48,0.00,,,0.00,0.00,VWS V14.01,2013-11-06 10:38:00,
2013-11-06 05:39:00,53.1,34.0,29.99,SW,222,9.5,9.5,48,0.00,,,0.00,0.00,VWS V14.01,2013-11-06 10:39:00,
2013-11-06 05:40:00,53.3,34.1,30.00,SSW,205,9.7,9.7,48,0.00,,,0.00,0.37,VWS V14.01,2013-11-06 10:40:00,
2013-11-06 05:41:00,53.4,34.2,29.99,SW,220,11.9,11.9,48,0.00,,,0.00,0.00,VWS V14.01,2013-11-06 10:41:00,
2013-11-06 05:43:00,52.7,34.4,29.98,SSW,199,7.8,7.8,50,0.00,,,0.00,0.00,VWS V14.01,2013-11-06 10:43:00,
2013-11-06 05:44:00,52.5,34.6,29.98,SW,226,5.4,8.0,50,0.00,,,0.00,0.00,VWS V14.01,2013-11-06 10:44:00,
2013-11-06 05:45:00,52.8,34.9,29.99,SSW,211,9.9,9.9,50,0.00,,,0.00,0.00,VWS V14.01,2013-11-06 10:45:00,
2013-11-06 05:46:00,52.7,35.2,29.99,SW,217,9.5,9.9,51,0.00,,,0.00,0.00,VWS V14.01,2013-11-06 10:46:00,
2013-11-06 05:47:00,52.5,35.3,29.99,SSW,212,6.8,9.5,52,0.00,,,0.00,0.00,VWS V14.01,2013-11-06 10:47:00,
2013-11-06 05:49:00,52.0,35.6,29.98,SSW,200,6.1,8.3,53,0.00,,,0.00,0.12,VWS V14.01,2013-11-06 10:49:00,
2013-11-06 05:50:00,52.3,31.7,29.98,SSW,196,9.5,9.5,45,0.00,,,0.00,0.00,VWS V14.01,2013-11-06 10:50:00,
2013-11-06 05:51:00,52.6,36.0,29.99,SSW,199,9.0,9.5,53,0.00,,,0.00,0.00,VWS V14.01,2013-11-06 10:51:00,
2013-11-06 05:52:00,52.2,35.8,29.99,SW,222,8.1,9.0,53,0.00,,,0.00,0.00,VWS V14.01,2013-11-06 10:52:00,
2013-11-06 05:56:00,52.9,36.3,29.99,SSW,209,11.2,11.2,53,0.00,,,0.00,0.12,VWS V14.01,2013-11-06 10:56:00,
2013-11-06 05:58:00,52.2,36.2,29.98,SSW,197,7.1,8.3,54,0.00,,,0.00,0.00,VWS V14.01,2013-11-06 10:58:00,
2013-11-06 05:59:00,52.3,36.3,29.98,SSW,202,8.7,8.7,54,0.00,,,0.00,0.43,VWS V14.01,2013-11-06 10:59:00,
2013-11-06 06:01:00,52.8,36.2,29.97,SSW,202,10.0,11.1,53,0.00,,,0.00,0.00,VWS V14.01,2013-11-06 11:01:00,
2013-11-06 06:02:00,52.8,36.2,29.98,SSW,200,8.3,10.0,53,0.00,,,0.00,0.00,VWS V14.01,2013-11-06 11:02:00,
2013-11-06 06:03:00,52.7,35.9,29.97,SSW,202,9.9,10.0,53,0.00,,,0.00,0.00,VWS V14.01,2013-11-06 11:03:00,
2013-11-06 06:04:00,53.0,36.0,29.97,SSW,195,10.4,10.4,52,0.00,,,0.00,0.00,VWS V14.01,2013-11-06 11:04:00,
2013-11-06 06:07:00,52.6,36.0,29.97,South,190,8.1,10.0,53,0.00,,,0.00,0.00,VWS V14.01,2013-11-06 11:07:00,
2013-11-06 06:08:00,52.5,36.1,29.97,SW,223,9.3,9.3,53,0.00,,,0.00,0.00,VWS V14.01,2013-11-06 11:08:00,
2013-11-06 06:10:00,52.4,36.2,29.97,SSW,209,8.3,8.3,54,0.00,,,0.00,0.00,VWS V14.01,2013-11-06 11:10:00,
2013-11-06 06:11:00,52.4,36.2,29.97,SSW,209,8.3,8.3,54,0.00,,,0.00,0.00,VWS V14.01,2013-11-06 11:11:00,
2013-11-06 06:12:00,52.3,36.2,29.96,SSW,211,5.1,7.1,54,0.00,,,0.00,0.00,VWS V14.01,2013-11-06 11:12:00,
2013-11-06 06:14:00,52.7,36.1,29.96,SW,227,8.3,9.2,53,0.00,,,0.00,0.00,VWS V14.01,2013-11-06 11:14:00,
2013-11-06 06:15:00,52.8,36.2,29.96,SW,227,7.3,8.3,53,0.00,,,0.00,0.00,VWS V14.01,2013-11-06 11:15:00,
2013-11-06 06:16:00,53.1,36.5,29.96,SSW,204,10.4,10.4,53,0.00,,,0.00,0.00,VWS V14.01,2013-11-06 11:16:00,
2013-11-06 06:17:00,53.1,36.5,29.96,SSW,204,10.4,10.4,53,0.00,,,0.00,0.00,VWS V14.01,2013-11-06 11:17:00,
2013-11-06 06:18:00,52.8,36.2,29.97,SSW,198,7.5,8.7,53,0.00,,,0.00,0.00,VWS V14.01,2013-11-06 11:18:00,
2013-11-06 06:19:00,52.9,36.2,29.97,SSW,196,8.7,8.7,53,0.00,,,0.00,0.43,VWS V14.01,2013-11-06 11:19:00,
2013-11-06 06:20:00,52.7,36.1,29.96,South,180,7.5,8.7,53,0.00,,,0.00,0.12,VWS V14.01,2013-11-06 11:20:00,
2013-11-06 06:22:00,52.8,36.0,29.99,SSW,201,9.2,9.2,53,0.00,,,0.00,0.43,VWS V14.01,2013-11-06 11:22:00,
2013-11-06 06:23:00,53.0,36.4,29.98,SSW,203,8.7,10.9,53,0.00,,,0.00,0.00,VWS V14.01,2013-11-06 11:23:00,
2013-11-06 06:25:00,53.1,36.5,29.96,South,180,8.1,10.4,53,0.00,,,0.00,0.00,VWS V14.01,2013-11-06 11:25:00,
2013-11-06 06:27:00,52.4,36.6,29.96,SSW,198,5.2,5.2,55,0.00,,,0.00,0.43,VWS V14.01,2013-11-06 11:27:00,
2013-11-06 06:28:00,53.0,37.0,29.96,SSW,206,8.7,8.7,54,0.00,,,0.00,0.00,VWS V14.01,2013-11-06 11:28:00,
2013-11-06 06:29:00,52.6,37.0,29.96,SSW,197,8.5,8.5,55,0.00,,,0.00,0.00,VWS V14.01,2013-11-06 11:29:00,
2013-11-06 06:30:00,52.5,37.2,29.95,SSW,205,7.3,8.5,56,0.00,,,0.00,0.00,VWS V14.01,2013-11-06 11:30:00,
2013-11-06 06:31:00,52.6,37.3,29.95,South,184,7.5,7.5,56,0.00,,,0.00,0.00,VWS V14.01,2013-11-06 11:31:00,
2013-11-06 06:32:00,52.3,37.1,29.96,SSW,210,7.8,7.8,56,0.00,,,0.00,0.43,VWS V14.01,2013-11-06 11:32:00,
2013-11-06 06:34:00,52.0,38.1,29.96,SSW,209,6.1,7.6,59,0.00,,,0.00,0.00,VWS V14.01,2013-11-06 11:34:00,
2013-11-06 06:35:00,52.3,38.7,29.96,SSW,207,6.1,8.1,60,0.00,,,0.00,0.00,VWS V14.01,2013-11-06 11:35:00,
2013-11-06 06:36:00,52.0,38.3,29.96,SSW,199,7.6,8.1,59,0.00,,,0.00,0.00,VWS V14.01,2013-11-06 11:36:00,
2013-11-06 06:37:00,52.0,38.3,29.96,SSW,199,7.6,8.1,59,0.00,,,0.00,0.00,VWS V14.01,2013-11-06 11:37:00,
2013-11-06 06:41:00,52.1,39.8,29.96,SSW,203,6.9,6.9,63,0.00,,,0.00,0.00,VWS V14.01,2013-11-06 11:41:00,
2013-11-06 06:42:00,52.3,39.4,29.96,SSW,198,9.2,11.6,61,0.00,,,0.00,0.00,VWS V14.01,2013-11-06 11:42:00,
2013-11-06 06:44:00,51.8,39.5,29.95,SSW,202,6.6,6.9,63,0.00,,,0.00,0.00,VWS V14.01,2013-11-06 11:44:00,
2013-11-06 06:47:00,52.2,39.6,29.96,South,189,8.0,8.0,62,0.00,,,0.00,0.00,VWS V14.01,2013-11-06 11:47:00,
2013-11-06 06:48:00,51.9,39.3,29.95,SSW,195,8.5,8.5,62,0.00,,,0.00,0.12,VWS V14.01,2013-11-06 11:48:00,
2013-11-06 06:49:00,51.7,39.8,29.96,SSW,195,6.8,8.1,64,0.00,,,0.00,0.00,VWS V14.01,2013-11-06 11:49:00,
2013-11-06 06:53:00,51.7,40.0,29.96,SSW,208,7.5,10.9,64,0.00,,,0.00,0.12,VWS V14.01,2013-11-06 11:53:00,
2013-11-06 06:54:00,51.9,40.5,29.96,SSW,201,7.5,7.5,65,0.00,,,0.00,0.73,VWS V14.01,2013-11-06 11:54:00,
2013-11-06 06:55:00,51.8,40.6,29.96,SSW,208,6.9,9.5,66,0.00,,,0.00,0.00,VWS V14.01,2013-11-06 11:55:00,
2013-11-06 06:59:00,51.4,40.9,29.96,SSW,198,6.6,8.3,67,0.00,,,0.00,0.00,VWS V14.01,2013-11-06 11:59:00,
2013-11-06 07:00:00,51.7,41.0,29.95,SSW,194,6.6,9.0,67,0.00,,,0.00,0.00,VWS V14.01,2013-11-06 12:00:00,
2013-11-06 07:01:00,52.0,41.4,29.95,SSW,196,8.3,8.3,67,0.00,,,0.00,0.00,VWS V14.01,2013-11-06 12:01:00,
2013-11-06 07:02:00,51.6,41.0,29.95,SSW,206,5.4,8.3,67,0.00,,,0.00,0.43,VWS V14.01,2013-11-06 12:02:00,
2013-11-06 07:03:00,51.9,41.6,29.95,SSW,198,8.7,8.7,68,0.00,,,0.00,0.00,VWS V14.01,2013-11-06 12:03:00,
2013-11-06 07:05:00,51.8,41.6,29.96,SSW,192,8.7,8.7,68,0.00,,,0.00,0.00,VWS V14.01,2013-11-06 12:05:00,
2013-11-06 07:06:00,51.6,41.3,29.95,SSW,196,5.7,7.8,68,0.00,,,0.00,0.00,VWS V14.01,2013-11-06 12:06:00,
2013-11-06 07:07:00,52.1,41.9,29.96,SSW,201,8.1,8.1,68,0.00,,,0.00,0.00,VWS V14.01,2013-11-06 12:07:00,
2013-11-06 07:08:00,52.1,41.9,29.96,SSW,201,8.1,8.1,68,0.00,,,0.00,0.00,VWS V14.01,2013-11-06 12:08:00,
2013-11-06 07:12:00,51.7,41.9,29.96,SSW,202,6.9,7.5,69,0.00,,,0.00,0.24,VWS V14.01,2013-11-06 12:12:00,
2013-11-06 07:13:00,51.9,42.3,29.96,SSW,195,5.7,6.6,70,0.00,,,0.00,1.28,VWS V14.01,2013-11-06 12:13:00,
2013-11-06 07:14:00,52.3,42.4,29.95,SSW,207,8.8,8.8,69,0.00,,,0.00,1.47,VWS V14.01,2013-11-06 12:14:00,
2013-11-06 07:18:00,52.3,42.6,29.95,SW,226,7.6,7.6,70,0.00,,,0.00,2.87,VWS V14.01,2013-11-06 12:18:00,
2013-11-06 07:19:00,52.3,42.6,29.95,SW,226,7.6,7.6,70,0.00,,,0.00,2.87,VWS V14.01,2013-11-06 12:19:00,
2013-11-06 07:20:00,52.5,42.8,29.95,SSW,193,10.4,10.4,69,0.00,,,0.00,2.56,VWS V14.01,2013-11-06 12:20:00,
2013-11-06 07:21:00,52.6,40.5,29.95,SSW,196,9.9,10.4,63,0.00,,,0.00,2.56,VWS V14.01,2013-11-06 12:21:00,
2013-11-06 07:24:00,52.2,41.8,29.94,SSW,206,7.3,7.3,68,0.00,,,0.00,2.26,VWS V14.01,2013-11-06 12:24:00,
2013-11-06 07:26:00,52.4,42.7,29.94,SSW,203,7.6,8.1,69,0.00,,,0.00,2.26,VWS V14.01,2013-11-06 12:26:00,
2013-11-06 07:27:00,52.2,42.7,29.94,SSW,197,6.1,7.6,70,0.00,,,0.00,2.26,VWS V14.01,2013-11-06 12:27:00,
2013-11-06 07:29:00,52.6,42.7,29.95,SSW,201,8.7,11.2,69,0.00,,,0.00,2.26,VWS V14.01,2013-11-06 12:29:00,
2013-11-06 07:31:00,52.9,43.1,29.94,SSW,200,10.2,10.2,69,0.00,,,0.00,4.70,VWS V14.01,2013-11-06 12:31:00,
2013-11-06 07:32:00,52.8,42.8,29.94,SSW,201,9.3,10.2,69,0.00,,,0.00,4.70,VWS V14.01,2013-11-06 12:32:00,
2013-11-06 07:34:00,52.6,42.3,29.95,SSW,197,8.5,9.9,68,0.00,,,0.00,7.75,VWS V14.01,2013-11-06 12:34:00,
2013-11-06 07:37:00,52.8,42.9,29.95,South,191,9.3,10.2,69,0.00,,,0.00,12.03,VWS V14.01,2013-11-06 12:37:00,
2013-11-06 07:39:00,53.2,43.8,29.94,SSW,206,8.3,8.3,70,0.00,,,0.00,16.97,VWS V14.01,2013-11-06 12:39:00,
2013-11-06 07:42:00,52.6,43.2,29.94,South,179,8.1,10.0,70,0.00,,,0.00,21.79,VWS V14.01,2013-11-06 12:42:00,
2013-11-06 07:44:00,53.0,43.6,29.95,SSW,203,8.5,9.2,70,0.00,,,0.00,27.29,VWS V14.01,2013-11-06 12:44:00,
2013-11-06 07:45:00,53.2,43.9,29.95,SSW,210,8.7,11.4,71,0.00,,,0.00,29.12,VWS V14.01,2013-11-06 12:45:00,
2013-11-06 07:47:00,53.3,43.6,29.95,SSW,192,8.8,10.9,70,0.00,,,0.00,24.54,VWS V14.01,2013-11-06 12:47:00,
2013-11-06 07:48:00,53.3,43.6,29.95,SSW,192,8.8,10.9,70,0.00,,,0.00,24.54,VWS V14.01,2013-11-06 12:48:00,
2013-11-06 07:49:00,53.2,43.9,29.95,SSW,211,9.0,12.1,71,0.00,,,0.00,19.35,VWS V14.01,2013-11-06 12:49:00,
2013-11-06 07:52:00,53.4,44.2,29.95,SW,214,11.6,11.6,71,0.00,,,0.00,14.96,VWS V14.01,2013-11-06 12:52:00,
2013-11-06 07:53:00,53.8,44.0,29.95,SW,223,14.3,14.3,69,0.00,,,0.00,14.47,VWS V14.01,2013-11-06 12:53:00,
2013-11-06 07:54:00,53.2,43.4,29.95,SW,232,8.8,14.3,69,0.00,,,0.00,14.47,VWS V14.01,2013-11-06 12:54:00,
2013-11-06 07:55:00,53.2,43.9,29.95,SW,214,11.7,11.7,71,0.00,,,0.00,15.08,VWS V14.01,2013-11-06 12:55:00,
2013-11-06 07:57:00,53.3,44.1,29.95,SSW,213,7.6,10.7,71,0.00,,,0.00,15.08,VWS V14.01,2013-11-06 12:57:00,
2013-11-06 07:59:00,53.4,44.3,29.98,SW,216,10.7,10.7,71,0.00,,,0.00,15.45,VWS V14.01,2013-11-06 12:59:00,
2013-11-06 08:00:00,53.2,44.2,29.95,SSW,213,10.0,11.9,71,0.00,,,0.00,14.71,VWS V14.01,2013-11-06 13:00:00,
2013-11-06 08:02:00,53.0,44.7,29.95,SSW,208,9.0,10.0,73,0.00,,,0.00,14.77,VWS V14.01,2013-11-06 13:02:00,
2013-11-06 08:04:00,53.2,45.6,29.95,SSW,194,8.0,10.0,75,0.00,,,0.00,9.58,VWS V14.01,2013-11-06 13:04:00,
2013-11-06 08:06:00,52.9,45.1,29.96,SSW,207,9.0,12.3,75,0.00,,,0.00,9.89,VWS V14.01,2013-11-06 13:06:00,
2013-11-06 08:07:00,53.2,43.1,29.95,SW,218,11.9,12.3,69,0.00,,,0.00,9.58,VWS V14.01,2013-11-06 13:07:00,
2013-11-06 08:09:00,53.3,45.8,29.95,SSW,211,12.8,12.8,76,0.00,,,0.00,9.58,VWS V14.01,2013-11-06 13:09:00,
2013-11-06 08:11:00,52.7,45.9,29.95,SW,219,9.9,12.8,77,0.00,,,0.00,10.26,VWS V14.01,2013-11-06 13:11:00,
2013-11-06 08:12:00,52.9,46.2,29.96,SSW,201,8.8,12.8,78,0.00,,,0.00,12.03,VWS V14.01,2013-11-06 13:12:00,
2013-11-06 08:13:00,52.8,46.3,29.96,SSW,200,10.4,12.8,78,0.00,,,0.00,12.03,VWS V14.01,2013-11-06 13:13:00,
2013-11-06 08:14:00,52.6,46.0,29.94,SW,219,7.8,12.8,78,0.00,,,0.00,12.03,VWS V14.01,2013-11-06 13:14:00,
2013-11-06 08:15:00,52.6,46.2,29.94,SW,216,8.1,12.8,79,0.00,,,0.00,12.03,VWS V14.01,2013-11-06 13:15:00,
2013-11-06 08:17:00,53.1,46.7,29.94,SW,224,13.1,14.3,79,0.00,,,0.00,12.03,VWS V14.01,2013-11-06 13:17:00,
2013-11-06 08:18:00,53.1,46.7,29.94,SW,224,13.1,14.3,79,0.00,,,0.00,12.03,VWS V14.01,2013-11-06 13:18:00,
2013-11-06 08:20:00,53.4,47.1,29.94,SSW,202,15.3,15.3,79,0.00,,,0.00,8.85,VWS V14.01,2013-11-06 13:20:00,
2013-11-06 08:22:00,52.8,46.6,29.94,SSW,208,9.5,15.3,79,0.00,,,0.00,9.28,VWS V14.01,2013-11-06 13:22:00,
2013-11-06 08:24:00,53.1,47.4,29.94,SW,217,14.8,15.3,81,0.00,,,0.00,11.29,VWS V14.01,2013-11-06 13:24:00,
2013-11-06 08:25:00,53.2,47.2,29.93,WSW,246,13.1,15.3,80,0.04,,,0.04,12.64,VWS V14.01,2013-11-06 13:25:00,
2013-11-06 08:27:00,53.5,47.7,29.95,SSW,195,14.5,15.3,81,0.04,,,0.04,13.74,VWS V14.01,2013-11-06 13:27:00,
2013-11-06 08:29:00,53.2,47.4,29.94,SW,225,12.1,16.4,81,0.04,,,0.04,16.24,VWS V14.01,2013-11-06 13:29:00,
2013-11-06 08:30:00,53.6,47.7,29.94,SW,215,15.3,16.4,80,0.04,,,0.04,16.91,VWS V14.01,2013-11-06 13:30:00,
2013-11-06 08:31:00,53.3,47.1,29.93,SW,221,12.1,16.4,79,0.04,,,0.04,17.83,VWS V14.01,2013-11-06 13:31:00,
2013-11-06 08:32:00,53.7,47.6,29.93,SW,216,16.9,16.9,80,0.04,,,0.04,19.05,VWS V14.01,2013-11-06 13:32:00,
2013-11-06 08:35:00,53.6,47.3,29.93,SSW,204,16.7,16.9,79,0.04,,,0.04,24.24,VWS V14.01,2013-11-06 13:35:00,
2013-11-06 08:36:00,53.0,46.8,29.94,SW,223,8.7,16.9,79,0.04,,,0.04,27.29,VWS V14.01,2013-11-06 13:36:00,
2013-11-06 08:37:00,53.0,47.3,29.94,SW,222,8.3,16.9,81,0.04,,,0.04,29.12,VWS V14.01,2013-11-06 13:37:00,
2013-11-06 08:39:00,53.5,47.6,29.94,SW,217,14.3,16.9,80,0.04,,,0.04,36.20,VWS V14.01,2013-11-06 13:39:00,
2013-11-06 08:41:00,53.6,47.6,29.94,SSW,207,14.8,16.9,80,0.04,,,0.04,38.89,VWS V14.01,2013-11-06 13:41:00,
2013-11-06 08:42:00,53.6,47.3,29.94,SW,220,14.1,16.9,79,0.04,,,0.04,38.89,VWS V14.01,2013-11-06 13:42:00,
2013-11-06 08:43:00,53.6,47.1,29.93,SW,216,16.4,16.9,78,0.04,,,0.04,39.50,VWS V14.01,2013-11-06 13:43:00,
2013-11-06 08:44:00,53.2,47.1,29.93,SW,229,9.7,16.9,80,0.04,,,0.04,36.14,VWS V14.01,2013-11-06 13:44:00,
2013-11-06 08:47:00,53.2,47.0,29.94,SW,219,10.2,16.9,80,0.04,,,0.04,36.45,VWS V14.01,2013-11-06 13:47:00,
2013-11-06 08:48:00,53.4,47.2,29.94,SW,232,11.6,16.9,79,0.04,,,0.04,37.06,VWS V14.01,2013-11-06 13:48:00,
2013-11-06 08:49:00,53.5,47.4,29.93,SSW,201,14.3,16.9,80,0.04,,,0.04,35.59,VWS V14.01,2013-11-06 13:49:00,
2013-11-06 08:53:00,53.8,45.5,29.93,SW,221,15.3,16.9,73,0.04,,,0.04,38.40,VWS V14.01,2013-11-06 13:53:00,
2013-11-06 08:54:00,53.4,46.9,29.94,SSW,207,10.9,16.9,78,0.04,,,0.04,36.87,VWS V14.01,2013-11-06 13:54:00,
2013-11-06 08:55:00,53.9,47.2,29.94,SSW,201,14.8,16.9,78,0.04,,,0.04,35.71,VWS V14.01,2013-11-06 13:55:00,
2013-11-06 08:58:00,53.6,47.0,29.93,SW,226,11.9,16.9,78,0.04,,,0.04,38.64,VWS V14.01,2013-11-06 13:58:00,
2013-11-06 09:00:00,53.5,46.6,29.94,WSW,239,12.8,17.2,77,0.04,,,0.04,43.77,VWS V14.01,2013-11-06 14:00:00,
2013-11-06 09:01:00,53.6,46.7,29.95,SW,223,13.3,17.2,77,0.04,,,0.04,43.77,VWS V14.01,2013-11-06 14:01:00,
2013-11-06 09:02:00,53.6,46.7,29.95,SW,223,13.3,17.2,77,0.04,,,0.04,43.77,VWS V14.01,2013-11-06 14:02:00,
2013-11-06 09:03:00,53.6,46.6,29.94,SSW,213,14.6,14.6,77,0.04,,,0.04,40.29,VWS V14.01,2013-11-06 14:03:00,
2013-11-06 09:04:00,54.0,46.9,29.94,SSW,208,14.3,14.6,77,0.04,,,0.04,37.61,VWS V14.01,2013-11-06 14:04:00,
2013-11-06 09:06:00,53.7,46.7,29.94,SSW,208,15.8,15.8,77,0.04,,,0.04,33.52,VWS V14.01,2013-11-06 14:06:00,
2013-11-06 09:07:00,53.6,46.6,29.93,SSW,213,14.6,14.6,77,0.04,,,0.04,32.36,VWS V14.01,2013-11-06 14:07:00,
2013-11-06 09:08:00,53.5,46.5,29.93,SW,228,11.4,14.6,77,0.04,,,0.04,31.56,VWS V14.01,2013-11-06 14:08:00,
2013-11-06 09:11:00,53.4,47.1,29.94,SW,217,11.1,11.1,79,0.08,,,0.08,32.48,VWS V14.01,2013-11-06 14:11:00,
2013-11-06 09:12:00,53.4,47.0,29.95,SW,221,12.9,12.9,79,0.08,,,0.08,31.26,VWS V14.01,2013-11-06 14:12:00,
2013-11-06 09:13:00,53.9,47.5,29.94,SSW,205,10.9,12.9,79,0.08,,,0.08,28.39,VWS V14.01,2013-11-06 14:13:00,
2013-11-06 09:14:00,53.5,46.8,29.93,SW,219,12.6,15.8,78,0.08,,,0.08,34.00,VWS V14.01,2013-11-06 14:14:00,
2013-11-06 09:17:00,53.4,47.0,29.94,SW,225,13.6,13.6,79,0.08,,,0.08,40.84,VWS V14.01,2013-11-06 14:17:00,
2013-11-06 09:18:00,53.2,46.4,29.93,SW,231,10.9,15.7,78,0.08,,,0.08,45.48,VWS V14.01,2013-11-06 14:18:00,
2013-11-06 09:19:00,53.3,46.8,29.94,SW,227,11.2,11.2,78,0.08,,,0.08,47.07,VWS V14.01,2013-11-06 14:19:00,
2013-11-06 09:20:00,53.6,47.1,29.94,SW,216,16.2,16.2,79,0.08,,,0.08,46.21,VWS V14.01,2013-11-06 14:20:00,
2013-11-06 09:23:00,53.7,47.0,29.94,SSW,205,14.5,14.5,78,0.08,,,0.08,45.48,VWS V14.01,2013-11-06 14:23:00,
2013-11-06 09:24:00,53.6,46.9,29.93,South,186,11.1,11.1,78,0.08,,,0.08,48.66,VWS V14.01,2013-11-06 14:24:00,
2013-11-06 09:25:00,53.6,46.9,29.93,South,186,11.1,11.1,78,0.08,,,0.08,48.66,VWS V14.01,2013-11-06 14:25:00,
2013-11-06 09:26:00,53.8,46.8,29.94,SSE,167,14.3,16.5,77,0.08,,,0.08,48.66,VWS V14.01,2013-11-06 14:26:00,
2013-11-06 09:28:00,53.8,46.8,29.94,SW,218,14.0,14.8,77,0.08,,,0.08,45.67,VWS V14.01,2013-11-06 14:28:00,
2013-11-06 09:29:00,53.8,46.8,29.94,SW,221,14.1,14.8,77,0.08,,,0.08,51.77,VWS V14.01,2013-11-06 14:29:00,
2013-11-06 09:30:00,53.7,46.3,29.94,SSW,206,17.9,17.9,76,0.08,,,0.08,54.52,VWS V14.01,2013-11-06 14:30:00,
2013-11-06 09:31:00,54.0,46.5,29.94,SSW,212,15.8,15.8,76,0.08,,,0.08,56.23,VWS V14.01,2013-11-06 14:31:00,
2013-11-06 09:32:00,54.0,46.5,29.94,SSW,212,15.8,15.8,76,0.08,,,0.08,56.23,VWS V14.01,2013-11-06 14:32:00,
2013-11-06 09:33:00,53.7,45.9,29.93,SW,223,15.7,17.7,75,0.08,,,0.08,44.02,VWS V14.01,2013-11-06 14:33:00,
2013-11-06 09:34:00,53.5,46.4,29.94,West,276,9.2,15.7,77,0.08,,,0.08,42.86,VWS V14.01,2013-11-06 14:34:00,
2013-11-06 09:36:00,53.8,46.5,29.93,SW,226,14.1,14.1,76,0.08,,,0.08,48.05,VWS V14.01,2013-11-06 14:36:00,
2013-11-06 09:37:00,53.8,46.6,29.94,SW,219,11.1,12.6,76,0.08,,,0.08,57.51,VWS V14.01,2013-11-06 14:37:00,
2013-11-06 09:38:00,53.6,46.5,29.94,SW,225,9.9,13.1,77,0.08,,,0.08,67.89,VWS V14.01,2013-11-06 14:38:00,
2013-11-06 09:40:00,54.0,46.7,29.94,SW,219,15.0,15.0,76,0.08,,,0.08,62.82,VWS V14.01,2013-11-06 14:40:00,
2013-11-06 09:41:00,54.1,46.2,29.93,SW,231,16.9,16.9,75,0.08,,,0.08,53.54,VWS V14.01,2013-11-06 14:41:00,
2013-11-06 09:43:00,53.9,46.3,29.94,SW,224,10.5,16.9,75,0.08,,,0.08,47.13,VWS V14.01,2013-11-06 14:43:00,
2013-11-06 09:44:00,53.7,46.3,29.94,SSW,201,10.5,10.5,76,0.08,,,0.08,54.21,VWS V14.01,2013-11-06 14:44:00,
2013-11-06 09:45:00,53.8,46.3,29.94,SW,236,11.7,14.8,76,0.08,,,0.08,44.08,VWS V14.01,2013-11-06 14:45:00,
2013-11-06 09:46:00,53.8,46.1,29.94,SSW,213,11.1,11.7,75,0.08,,,0.08,41.09,VWS V14.01,2013-11-06 14:46:00,
2013-11-06 09:48:00,54.2,46.2,29.93,SW,218,15.0,15.0,74,0.08,,,0.00,47.44,VWS V14.01,2013-11-06 14:48:00,
2013-11-06 09:50:00,53.9,46.2,29.93,SSW,212,13.3,13.3,75,0.08,,,0.08,56.53,VWS V14.01,2013-11-06 14:50:00,
2013-11-06 09:51:00,53.9,46.3,29.93,SW,233,13.1,15.0,75,0.08,,,0.08,65.93,VWS V14.01,2013-11-06 14:51:00,
2013-11-06 09:52:00,53.7,46.3,29.94,SW,236,8.3,13.1,76,0.08,,,0.08,71.49,VWS V14.01,2013-11-06 14:52:00,
2013-11-06 09:53:00,54.0,46.1,29.93,SSW,207,12.8,16.0,75,0.08,,,0.08,70.33,VWS V14.01,2013-11-06 14:53:00,
2013-11-06 09:56:00,54.0,46.3,29.96,SSW,202,16.0,16.0,75,0.08,,,0.08,53.54,VWS V14.01,2013-11-06 14:56:00,
2013-11-06 09:57:00,54.1,46.0,29.94,SW,222,15.0,15.0,74,0.08,,,0.08,46.21,VWS V14.01,2013-11-06 14:57:00,
2013-11-06 09:58:00,54.2,45.9,29.94,SW,222,16.9,16.9,74,0.08,,,0.08,38.89,VWS V14.01,2013-11-06 14:58:00,
2013-11-06 09:59:00,53.8,45.5,29.93,SSW,210,12.8,16.9,73,0.08,,,0.08,34.00,VWS V14.01,2013-11-06 14:59:00,
2013-11-06 10:02:00,54.2,46.2,29.92,SSW,209,17.6,17.6,74,0.04,,,0.08,37.18,VWS V14.01,2013-11-06 15:02:00,
2013-11-06 10:04:00,53.7,44.8,29.93,SW,221,10.5,10.5,72,0.04,,,0.08,33.94,VWS V14.01,2013-11-06 15:04:00,
2013-11-06 10:07:00,54.0,46.0,29.92,SW,215,14.1,14.5,74,0.04,,,0.08,61.36,VWS V14.01,2013-11-06 15:07:00,
2013-11-06 10:09:00,53.9,45.9,29.92,SW,236,12.8,14.8,74,0.04,,,0.08,65.75,VWS V14.01,2013-11-06 15:09:00,
2013-11-06 10:10:00,53.8,46.1,29.93,SW,224,11.6,13.3,75,0.04,,,0.08,54.03,VWS V14.01,2013-11-06 15:10:00,
2013-11-06 10:12:00,53.8,46.1,29.92,SW,214,10.0,10.0,75,0.00,,,0.08,53.36,VWS V14.01,2013-11-06 15:12:00,
2013-11-06 10:13:00,53.8,45.8,29.92,SW,220,13.1,14.6,74,0.00,,,0.08,53.24,VWS V14.01,2013-11-06 15:13:00,
2013-11-06 10:15:00,53.9,46.1,29.93,WSW,249,11.1,11.9,75,0.00,,,0.08,63.55,VWS V14.01,2013-11-06 15:15:00,
2013-11-06 10:16:00,54.0,46.4,29.91,SW,236,11.4,11.4,75,0.00,,,0.08,67.89,VWS V14.01,2013-11-06 15:16:00,
2013-11-06 10:17:00,54.1,46.3,29.93,WSW,239,14.8,14.8,75,0.00,,,0.08,60.07,VWS V14.01,2013-11-06 15:17:00,
2013-11-06 10:18:00,53.8,44.1,29.93,WSW,242,10.9,14.8,69,0.00,,,0.08,56.23,VWS V14.01,2013-11-06 15:18:00,
2013-11-06 10:20:00,53.9,45.9,29.93,SW,234,11.9,15.3,74,0.00,,,0.08,68.44,VWS V14.01,2013-11-06 15:20:00,
2013-11-06 10:21:00,53.8,45.6,29.93,SW,224,12.4,12.4,74,0.00,,,0.08,69.29,VWS V14.01,2013-11-06 15:21:00,
2013-11-06 10:22:00,53.9,45.6,29.93,SSW,210,13.6,13.6,73,0.00,,,0.08,66.97,VWS V14.01,2013-11-06 15:22:00,
2013-11-06 10:23:00,53.9,45.7,29.93,SW,215,10.9,14.0,74,0.00,,,0.08,70.88,VWS V14.01,2013-11-06 15:23:00,
2013-11-06 10:26:00,53.8,46.3,29.92,SSW,212,10.7,11.1,76,0.00,,,0.08,82.60,VWS V14.01,2013-11-06 15:26:00,
2013-11-06 10:27:00,53.9,45.7,29.93,South,191,14.0,18.2,73,0.00,,,0.08,79.43,VWS V14.01,2013-11-06 15:27:00,
2013-11-06 10:29:00,54.0,45.9,29.93,SW,221,9.7,12.8,74,0.00,,,0.08,77.96,VWS V14.01,2013-11-06 15:29:00,
2013-11-06 10:33:00,54.2,46.0,29.92,SW,228,13.5,13.5,74,0.00,,,0.08,77.96,VWS V14.01,2013-11-06 15:33:00,
2013-11-06 10:34:00,54.3,45.9,29.92,SW,217,14.0,14.0,73,0.00,,,0.08,78.21,VWS V14.01,2013-11-06 15:34:00,
2013-11-06 10:35:00,54.3,46.0,29.92,SW,224,12.6,12.6,74,0.00,,,0.08,70.39,VWS V14.01,2013-11-06 15:35:00,
2013-11-06 10:37:00,54.1,45.7,29.93,SW,224,14.8,14.8,73,0.00,,,0.08,55.68,VWS V14.01,2013-11-06 15:37:00,
2013-11-06 10:39:00,54.1,45.5,29.93,SW,214,14.8,14.8,73,0.00,,,0.08,48.90,VWS V14.01,2013-11-06 15:39:00,
2013-11-06 10:40:00,54.1,45.5,29.92,SW,216,11.4,14.8,72,0.00,,,0.08,53.54,VWS V14.01,2013-11-06 15:40:00,
2013-11-06 10:44:00,54.0,45.7,29.93,SW,228,15.0,15.0,74,0.00,,,0.08,65.75,VWS V14.01,2013-11-06 15:44:00,
2013-11-06 10:45:00,54.0,45.4,29.92,SW,216,14.1,15.0,73,0.00,,,0.08,63.31,VWS V14.01,2013-11-06 15:45:00,
2013-11-06 10:46:00,53.9,45.3,29.92,WSW,237,10.7,14.1,73,0.00,,,0.08,67.40,VWS V14.01,2013-11-06 15:46:00,
2013-11-06 10:48:00,54.1,45.2,29.92,SSW,213,10.9,12.6,72,0.00,,,0.08,61.78,VWS V14.01,2013-11-06 15:48:00,
2013-11-06 10:50:00,54.2,45.6,29.92,SW,216,12.6,12.6,73,0.00,,,0.08,51.10,VWS V14.01,2013-11-06 15:50:00,
2013-11-06 10:51:00,54.3,45.4,29.92,SW,221,14.6,14.6,72,0.00,,,0.08,47.62,VWS V14.01,2013-11-06 15:51:00,
2013-11-06 10:52:00,54.4,45.3,29.91,SSW,213,14.3,14.6,71,0.00,,,0.08,49.15,VWS V14.01,2013-11-06 15:52:00,
2013-11-06 10:53:00,54.3,45.0,29.92,SSW,202,10.9,15.3,71,0.00,,,0.08,48.17,VWS V14.01,2013-11-06 15:53:00,
2013-11-06 10:54:00,54.0,44.8,29.92,SSW,198,11.1,11.1,71,0.00,,,0.08,50.85,VWS V14.01,2013-11-06 15:54:00,
2013-11-06 10:56:00,54.4,45.1,29.91,SW,229,16.7,16.7,71,0.00,,,0.08,53.54,VWS V14.01,2013-11-06 15:56:00,
2013-11-06 10:58:00,54.5,42.8,29.91,SW,218,15.2,15.2,65,0.00,,,0.08,57.88,VWS V14.01,2013-11-06 15:58:00,
2013-11-06 10:59:00,54.5,44.4,29.92,SW,227,13.5,13.8,69,0.00,,,0.08,60.32,VWS V14.01,2013-11-06 15:59:00,
2013-11-06 11:00:00,54.4,44.2,29.92,SSW,206,14.6,16.4,68,0.00,,,0.08,54.03,VWS V14.01,2013-11-06 16:00:00,
2013-11-06 11:03:00,54.6,44.2,29.92,SSW,206,10.9,16.7,68,0.00,,,0.08,52.32,VWS V14.01,2013-11-06 16:03:00,
2013-11-06 11:05:00,54.6,43.5,29.92,SW,220,15.5,17.6,66,0.00,,,0.08,58.12,VWS V14.01,2013-11-06 16:05:00,
2013-11-06 11:06:00,54.2,43.7,29.92,SSW,203,11.9,17.6,68,0.00,,,0.08,66.36,VWS V14.01,2013-11-06 16:06:00,
2013-11-06 11:08:00,54.2,44.3,29.91,SW,230,9.9,17.6,69,0.00,,,0.08,60.62,VWS V14.01,2013-11-06 16:08:00,
2013-11-06 11:10:00,54.5,44.1,29.91,SW,216,15.0,17.6,68,0.00,,,0.08,61.11,VWS V14.01,2013-11-06 16:10:00,
2013-11-06 11:11:00,54.4,44.0,29.91,SW,224,13.6,17.6,68,0.00,,,0.08,65.93,VWS V14.01,2013-11-06 16:11:00,
2013-11-06 11:14:00,54.4,44.2,29.90,South,180,18.8,18.8,68,0.00,,,0.08,66.67,VWS V14.01,2013-11-06 16:14:00,
2013-11-06 11:16:00,54.1,44.8,29.91,SSW,210,12.8,18.8,71,0.00,,,0.08,73.69,VWS V14.01,2013-11-06 16:16:00,
2013-11-06 11:18:00,54.0,45.3,29.91,SW,218,10.0,18.8,72,0.00,,,0.08,75.52,VWS V14.01,2013-11-06 16:18:00,
2013-11-06 11:19:00,54.1,45.0,29.90,SW,229,13.5,18.8,71,0.00,,,0.08,76.86,VWS V14.01,2013-11-06 16:19:00,
2013-11-06 11:22:00,53.9,45.5,29.91,SSW,205,10.4,18.8,73,0.00,,,0.08,78.82,VWS V14.01,2013-11-06 16:22:00,
2013-11-06 11:24:00,54.1,45.7,29.91,SW,235,13.3,18.8,73,0.00,,,0.08,76.43,VWS V14.01,2013-11-06 16:24:00,
2013-11-06 11:25:00,54.1,45.3,29.90,SW,218,16.2,18.8,72,0.00,,,0.08,71.25,VWS V14.01,2013-11-06 16:25:00,
2013-11-06 11:26:00,54.0,45.2,29.89,SSW,202,11.9,18.8,72,0.00,,,0.08,64.04,VWS V14.01,2013-11-06 16:26:00,
2013-11-06 11:27:00,54.1,45.5,29.89,SSW,209,13.1,18.8,72,0.00,,,0.08,80.16,VWS V14.01,2013-11-06 16:27:00,
2013-11-06 11:29:00,54.1,45.4,29.91,SW,216,13.3,18.8,72,0.00,,,0.08,83.27,VWS V14.01,2013-11-06 16:29:00,
2013-11-06 11:31:00,54.2,45.5,29.90,SW,218,14.6,18.8,72,0.00,,,0.08,94.81,VWS V14.01,2013-11-06 16:31:00,
2013-11-06 11:33:00,54.2,45.6,29.91,SW,214,10.2,18.8,73,0.00,,,0.08,103.24,VWS V14.01,2013-11-06 16:33:00,
2013-11-06 11:35:00,54.3,46.2,29.90,SW,223,14.1,18.8,74,0.00,,,0.08,95.30,VWS V14.01,2013-11-06 16:35:00,
2013-11-06 11:37:00,54.2,45.6,29.89,SW,219,11.6,18.8,73,0.00,,,0.08,78.88,VWS V14.01,2013-11-06 16:37:00,
2013-11-06 11:39:00,54.3,46.1,29.91,SW,230,12.1,18.8,73,0.00,,,0.08,73.32,VWS V14.01,2013-11-06 16:39:00,
2013-11-06 11:40:00,54.3,46.1,29.91,SW,230,12.1,18.8,73,0.00,,,0.08,73.32,VWS V14.01,2013-11-06 16:40:00,
2013-11-06 11:41:00,54.4,46.0,29.90,SW,229,14.5,18.8,73,0.00,,,0.08,80.40,VWS V14.01,2013-11-06 16:41:00,
2013-11-06 11:44:00,54.7,44.7,29.90,SW,223,19.4,19.4,69,0.00,,,0.08,99.45,VWS V14.01,2013-11-06 16:44:00,
2013-11-06 11:45:00,54.6,44.8,29.89,SW,218,14.0,19.4,69,0.00,,,0.08,105.49,VWS V14.01,2013-11-06 16:45:00,
2013-11-06 11:46:00,54.5,45.1,29.89,SSW,210,10.0,19.4,70,0.00,,,0.08,106.29,VWS V14.01,2013-11-06 16:46:00,
2013-11-06 11:47:00,54.7,44.7,29.89,SW,236,14.6,19.4,69,0.00,,,0.08,110.93,VWS V14.01,2013-11-06 16:47:00,
2013-11-06 11:50:00,54.8,44.8,29.88,SW,225,12.9,19.4,69,0.00,,,0.08,102.99,VWS V14.01,2013-11-06 16:50:00,
2013-11-06 11:51:00,54.9,44.3,29.90,SW,225,15.3,19.4,68,0.00,,,0.08,99.94,VWS V14.01,2013-11-06 16:51:00,
2013-11-06 11:53:00,54.8,44.3,29.89,SW,218,12.1,19.8,67,0.00,,,0.08,110.50,VWS V14.01,2013-11-06 16:53:00,
2013-11-06 11:56:00,54.8,44.3,29.89,SW,215,14.8,19.8,68,0.00,,,0.08,75.46,VWS V14.01,2013-11-06 16:56:00,
2013-11-06 11:57:00,54.7,44.0,29.89,SSW,210,15.8,19.8,67,0.00,,,0.08,83.76,VWS V14.01,2013-11-06 16:57:00,
2013-11-06 11:58:00,54.6,44.2,29.89,SW,227,14.1,19.8,68,0.00,,,0.08,97.50,VWS V14.01,2013-11-06 16:58:00,
2013-11-06 11:59:00,54.6,44.6,29.88,SW,225,12.4,19.8,69,0.00,,,0.08,101.16,VWS V14.01,2013-11-06 16:59:00,
2013-11-06 12:01:00,54.5,44.3,29.91,SSW,210,14.8,14.8,68,0.00,,,0.08,63.00,VWS V14.01,2013-11-06 17:01:00,
2013-11-06 12:02:00,54.5,44.3,29.89,SW,224,15.3,15.3,68,0.00,,,0.08,51.34,VWS V14.01,2013-11-06 17:02:00,
2013-11-06 12:03:00,54.5,44.5,29.88,SW,217,15.0,16.0,69,0.00,,,0.08,51.10,VWS V14.01,2013-11-06 17:03:00,
2013-11-06 12:04:00,54.4,44.6,29.88,South,189,12.3,16.7,69,0.00,,,0.08,60.13,VWS V14.01,2013-11-06 17:04:00,
2013-11-06 12:05:00,54.5,44.6,29.88,SW,218,13.3,16.7,69,0.00,,,0.08,72.83,VWS V14.01,2013-11-06 17:05:00,
2013-11-06 12:06:00,54.5,44.8,29.88,WSW,252,12.9,16.7,69,0.00,,,0.08,92.98,VWS V14.01,2013-11-06 17:06:00,
2013-11-06 12:07:00,54.8,44.2,29.87,SW,222,16.9,17.2,67,0.00,,,0.08,104.33,VWS V14.01,2013-11-06 17:07:00,
2013-11-06 12:09:00,54.8,44.1,29.87,SW,224,13.5,18.4,67,0.00,,,0.08,99.94,VWS V14.01,2013-11-06 17:09:00,
2013-11-06 12:10:00,54.6,44.4,29.87,SSW,205,10.2,18.4,68,0.00,,,0.08,112.39,VWS V14.01,2013-11-06 17:10:00,
2013-11-06 12:13:00,54.7,44.9,29.87,SW,218,10.7,18.4,69,0.00,,,0.00,114.84,VWS V14.01,2013-11-06 17:13:00,
2013-11-06 12:15:00,54.6,44.2,29.86,SSW,210,16.9,18.4,68,0.00,,,0.08,68.44,VWS V14.01,2013-11-06 17:15:00,
2013-11-06 12:16:00,54.6,44.2,29.86,SSW,210,16.9,18.4,68,0.00,,,0.08,68.44,VWS V14.01,2013-11-06 17:16:00,
2013-11-06 12:18:00,54.3,45.0,29.87,South,187,14.6,18.4,71,0.00,,,0.08,47.44,VWS V14.01,2013-11-06 17:18:00,
2013-11-06 12:19:00,54.2,45.3,29.88,SSW,203,15.0,18.4,72,0.00,,,0.08,55.98,VWS V14.01,2013-11-06 17:19:00,
2013-11-06 12:20:00,54.2,45.3,29.88,SSW,203,15.0,18.4,72,0.00,,,0.08,55.98,VWS V14.01,2013-11-06 17:20:00,
2013-11-06 12:21:00,54.2,46.0,29.87,WSW,251,11.2,18.4,74,0.00,,,0.08,54.27,VWS V14.01,2013-11-06 17:21:00,
2013-11-06 12:22:00,54.1,46.0,29.88,SSW,204,11.4,18.4,74,0.00,,,0.08,58.12,VWS V14.01,2013-11-06 17:22:00,
2013-11-06 12:24:00,54.2,46.0,29.87,SW,226,13.1,19.3,73,0.00,,,0.08,58.42,VWS V14.01,2013-11-06 17:24:00,
2013-11-06 12:25:00,54.3,46.0,29.88,SW,228,13.3,19.3,74,0.00,,,0.08,55.98,VWS V14.01,2013-11-06 17:25:00,
2013-11-06 12:27:00,54.2,46.1,29.86,WSW,240,15.5,20.0,74,0.00,,,0.08,58.42,VWS V14.01,2013-11-06 17:27:00,
2013-11-06 12:28:00,54.1,46.3,29.87,SW,222,10.9,20.0,75,0.00,,,0.08,61.78,VWS V14.01,2013-11-06 17:28:00,
2013-11-06 12:29:00,54.2,46.6,29.87,WSW,245,12.8,20.0,75,0.00,,,0.08,54.76,VWS V14.01,2013-11-06 17:29:00,
2013-11-06 12:31:00,54.2,46.7,29.87,SSW,194,10.5,20.0,76,0.00,,,0.08,63.80,VWS V14.01,2013-11-06 17:31:00,
2013-11-06 12:32:00,54.5,46.6,29.87,WSW,240,15.7,20.0,74,0.00,,,0.08,60.87,VWS V14.01,2013-11-06 17:32:00,
2013-11-06 12:34:00,54.2,46.9,29.86,SSW,212,13.5,20.0,76,0.00,,,0.08,69.29,VWS V14.01,2013-11-06 17:34:00,
2013-11-06 12:36:00,54.1,47.1,29.87,SSW,213,14.6,21.3,77,0.00,,,0.08,82.84,VWS V14.01,2013-11-06 17:36:00,
2013-11-06 12:37:00,54.2,47.3,29.86,SW,214,13.8,21.3,77,0.00,,,0.08,82.78,VWS V14.01,2013-11-06 17:37:00,
2013-11-06 12:38:00,54.2,47.5,29.86,SW,220,10.4,21.3,78,0.00,,,0.08,77.96,VWS V14.01,2013-11-06 17:38:00,
2013-11-06 12:39:00,54.2,47.4,29.87,SSW,207,16.0,21.3,78,0.00,,,0.08,70.15,VWS V14.01,2013-11-06 17:39:00,
2013-11-06 12:40:00,54.3,47.6,29.86,SW,227,18.8,21.3,78,0.00,,,0.08,68.80,VWS V14.01,2013-11-06 17:40:00,
2013-11-06 12:42:00,54.0,47.7,29.86,SW,214,12.9,21.3,79,0.00,,,0.08,38.03,VWS V14.01,2013-11-06 17:42:00,
2013-11-06 12:44:00,54.0,47.7,29.85,SSW,211,11.6,21.3,79,0.00,,,0.08,34.00,VWS V14.01,2013-11-06 17:44:00,
2013-11-06 12:45:00,54.1,47.8,29.85,SW,224,11.4,21.3,79,0.00,,,0.08,34.00,VWS V14.01,2013-11-06 17:45:00,
2013-11-06 12:47:00,54.1,47.9,29.86,SW,215,16.5,21.3,80,0.00,,,0.08,41.33,VWS V14.01,2013-11-06 17:47:00,
2013-11-06 12:48:00,54.1,48.0,29.88,SSW,200,13.6,21.3,80,0.00,,,0.08,38.40,VWS V14.01,2013-11-06 17:48:00,
2013-11-06 12:49:00,54.1,48.1,29.88,SW,220,15.2,21.3,80,0.00,,,0.08,36.26,VWS V14.01,2013-11-06 17:49:00,
2013-11-06 12:50:00,54.0,48.1,29.86,SSW,196,12.4,21.3,80,0.00,,,0.08,31.87,VWS V14.01,2013-11-06 17:50:00,
2013-11-06 12:51:00,54.0,48.3,29.86,WSW,241,13.3,21.3,81,0.00,,,0.08,35.23,VWS V14.01,2013-11-06 17:51:00,
2013-11-06 12:52:00,54.0,48.4,29.85,SSW,208,15.7,21.3,81,0.00,,,0.08,39.19,VWS V14.01,2013-11-06 17:52:00,
2013-11-06 12:53:00,54.0,48.5,29.85,SSW,211,18.1,21.3,81,0.00,,,0.08,32.78,VWS V14.01,2013-11-06 17:53:00,
2013-11-06 12:54:00,53.9,48.4,29.85,SW,216,17.7,21.3,82,0.00,,,0.08,37.06,VWS V14.01,2013-11-06 17:54:00,
2013-11-06 12:55:00,53.9,48.7,29.85,SSW,208,19.8,21.3,82,0.00,,,0.08,36.45,VWS V14.01,2013-11-06 17:55:00,
2013-11-06 12:56:00,53.8,48.6,29.86,SW,222,14.1,21.3,83,0.00,,,0.08,34.92,VWS V14.01,2013-11-06 17:56:00,
2013-11-06 12:58:00,53.8,48.7,29.85,SW,234,16.9,21.3,83,0.00,,,0.08,29.85,VWS V14.01,2013-11-06 17:58:00,
2013-11-06 13:00:00,53.6,49.0,29.86,SW,230,14.3,21.3,84,0.00,,,0.08,28.02,VWS V14.01,2013-11-06 18:00:00,
2013-11-06 13:01:00,53.6,49.0,29.86,SW,230,14.3,21.3,84,0.00,,,0.08,28.02,VWS V14.01,2013-11-06 18:01:00,
2013-11-06 13:04:00,53.7,49.3,29.86,SW,220,19.4,19.4,85,0.00,,,0.08,36.20,VWS V14.01,2013-11-06 18:04:00,
2013-11-06 13:05:00,53.6,49.2,29.85,SW,222,16.7,16.7,85,0.00,,,0.08,31.32,VWS V14.01,2013-11-06 18:05:00,
2013-11-06 13:06:00,53.6,49.3,29.87,SW,224,16.9,16.9,85,0.00,,,0.08,29.73,VWS V14.01,2013-11-06 18:06:00,
2013-11-06 13:07:00,53.5,49.2,29.85,SW,223,14.3,20.1,85,0.00,,,0.08,33.52,VWS V14.01,2013-11-06 18:07:00,
2013-11-06 13:08:00,53.5,49.2,29.88,SW,216,13.3,13.3,85,0.00,,,0.00,35.53,VWS V14.01,2013-11-06 18:08:00,
2013-11-06 13:09:00,53.5,49.3,29.86,SW,215,15.0,15.0,86,0.00,,,0.08,31.75,VWS V14.01,2013-11-06 18:09:00,
2013-11-06 13:10:00,53.5,49.3,29.85,WSW,253,9.9,15.5,86,0.00,,,0.08,29.12,VWS V14.01,2013-11-06 18:10:00,
2013-11-06 13:11:00,53.5,49.4,29.84,SW,233,19.6,19.6,86,0.00,,,0.08,30.46,VWS V14.01,2013-11-06 18:11:00,
2013-11-06 13:12:00,53.7,49.4,29.85,SW,235,19.8,19.8,85,0.00,,,0.08,35.23,VWS V14.01,2013-11-06 18:12:00,
2013-11-06 13:13:00,53.5,49.2,29.85,WSW,239,10.5,19.8,85,0.00,,,0.08,35.71,VWS V14.01,2013-11-06 18:13:00,
2013-11-06 13:15:00,53.6,49.3,29.84,SW,214,14.6,15.7,85,0.00,,,0.08,26.68,VWS V14.01,2013-11-06 18:15:00,
2013-11-06 13:16:00,53.6,49.2,29.84,SW,220,13.8,18.9,85,0.00,,,0.08,29.12,VWS V14.01,2013-11-06 18:16:00,
2013-11-06 13:18:00,53.6,49.2,29.83,WSW,244,12.6,16.7,85,0.00,,,0.08,26.37,VWS V14.01,2013-11-06 18:18:00,
2013-11-06 13:19:00,53.5,49.3,29.83,SW,222,9.2,13.1,85,0.00,,,0.08,27.29,VWS V14.01,2013-11-06 18:19:00,
2013-11-06 13:20:00,53.7,49.4,29.83,SW,215,12.9,14.5,85,0.00,,,0.08,24.18,VWS V14.01,2013-11-06 18:20:00,
2013-11-06 13:21:00,53.7,49.4,29.83,SW,215,12.9,14.5,85,0.00,,,0.08,24.18,VWS V14.01,2013-11-06 18:21:00,
2013-11-06 13:23:00,53.8,49.2,29.84,SW,228,12.9,16.9,84,0.00,,,0.08,24.24,VWS V14.01,2013-11-06 18:23:00,
2013-11-06 13:25:00,53.7,49.0,29.84,WSW,238,16.9,16.9,84,0.00,,,0.08,22.34,VWS V14.01,2013-11-06 18:25:00,
2013-11-06 13:26:00,53.8,49.0,29.87,SW,223,11.1,16.9,84,0.00,,,0.08,24.36,VWS V14.01,2013-11-06 18:26:00,
2013-11-06 13:27:00,53.7,49.1,29.84,SW,224,14.5,14.5,84,0.00,,,0.08,25.03,VWS V14.01,2013-11-06 18:27:00,
2013-11-06 13:28:00,53.8,49.0,29.84,SW,220,13.5,14.5,84,0.00,,,0.08,22.41,VWS V14.01,2013-11-06 18:28:00,
2013-11-06 13:32:00,53.7,48.8,29.84,SW,225,9.0,9.0,83,0.00,,,0.08,19.35,VWS V14.01,2013-11-06 18:32:00,
2013-11-06 13:33:00,53.9,48.9,29.83,WSW,248,17.4,17.4,83,0.00,,,0.08,19.60,VWS V14.01,2013-11-06 18:33:00,
2013-11-06 13:34:00,53.8,48.8,29.83,SW,234,10.9,18.1,83,0.00,,,0.08,24.54,VWS V14.01,2013-11-06 18:34:00,
2013-11-06 13:36:00,53.9,48.7,29.84,SW,228,16.4,16.4,83,0.00,,,0.08,19.96,VWS V14.01,2013-11-06 18:36:00,
2013-11-06 13:38:00,53.8,48.6,29.84,SW,217,12.9,13.3,82,0.00,,,0.08,17.52,VWS V14.01,2013-11-06 18:38:00,
2013-11-06 13:39:00,53.8,48.6,29.84,SW,231,16.2,16.2,82,0.00,,,0.08,17.16,VWS V14.01,2013-11-06 18:39:00,
2013-11-06 13:40:00,53.8,48.5,29.84,SSW,209,10.9,15.8,82,0.00,,,0.08,18.13,VWS V14.01,2013-11-06 18:40:00,
2013-11-06 13:42:00,53.8,48.6,29.84,SW,216,15.2,15.2,82,0.00,,,0.08,17.52,VWS V14.01,2013-11-06 18:42:00,
2013-11-06 13:43:00,53.8,48.6,29.84,SW,229,16.5,17.0,82,0.00,,,0.08,18.62,VWS V14.01,2013-11-06 18:43:00,
2013-11-06 13:44:00,53.8,48.5,29.84,WSW,249,11.2,16.5,82,0.00,,,0.08,17.77,VWS V14.01,2013-11-06 18:44:00,
2013-11-06 13:45:00,53.8,48.5,29.84,SSW,213,14.1,14.1,82,0.00,,,0.08,16.91,VWS V14.01,2013-11-06 18:45:00,
2013-11-06 13:48:00,53.9,48.6,29.83,SW,227,16.4,16.4,82,0.00,,,0.08,21.79,VWS V14.01,2013-11-06 18:48:00,
2013-11-06 13:49:00,53.8,48.5,29.84,WSW,240,10.2,16.4,82,0.00,,,0.08,19.05,VWS V14.01,2013-11-06 18:49:00,
2013-11-06 13:50:00,53.8,47.0,29.84,SW,236,15.2,15.2,78,0.00,,,0.08,18.38,VWS V14.01,2013-11-06 18:50:00,
2013-11-06 13:52:00,53.9,48.6,29.84,SW,232,18.2,18.2,82,0.00,,,0.08,19.60,VWS V14.01,2013-11-06 18:52:00,
2013-11-06 13:53:00,53.8,48.6,29.83,SSW,208,15.8,15.8,82,0.00,,,0.08,19.35,VWS V14.01,2013-11-06 18:53:00,
2013-11-06 13:54:00,53.8,48.7,29.84,WSW,246,13.5,14.0,83,0.00,,,0.08,20.82,VWS V14.01,2013-11-06 18:54:00,
2013-11-06 13:55:00,53.8,48.7,29.84,WSW,246,13.5,14.0,83,0.00,,,0.08,20.82,VWS V14.01,2013-11-06 18:55:00,
2013-11-06 13:56:00,53.7,48.7,29.84,SW,224,12.9,17.2,83,0.00,,,0.08,21.49,VWS V14.01,2013-11-06 18:56:00,
2013-11-06 13:57:00,53.8,48.8,29.84,SW,225,13.6,13.6,83,0.00,,,0.08,29.43,VWS V14.01,2013-11-06 18:57:00,
2013-11-06 13:58:00,53.8,48.9,29.84,SSW,212,17.2,17.2,83,0.00,,,0.08,34.00,VWS V14.01,2013-11-06 18:58:00,
2013-11-06 13:59:00,53.9,48.8,29.83,SW,235,16.0,16.0,83,0.00,,,0.08,34.31,VWS V14.01,2013-11-06 18:59:00,
2013-11-06 14:00:00,53.8,48.6,29.82,WSW,247,15.0,17.2,83,0.00,,,0.08,32.36,VWS V14.01,2013-11-06 19:00:00,
2013-11-06 14:02:00,53.8,48.6,29.83,WSW,239,13.3,15.0,83,0.00,,,0.08,29.12,VWS V14.01,2013-11-06 19:02:00,
2013-11-06 14:04:00,53.8,48.6,29.82,SW,221,17.0,18.2,83,0.00,,,0.08,36.45,VWS V14.01,2013-11-06 19:04:00,
2013-11-06 14:05:00,53.9,48.7,29.81,SSW,208,20.6,20.6,83,0.00,,,0.08,36.94,VWS V14.01,2013-11-06 19:05:00,
2013-11-06 14:06:00,53.9,48.6,29.81,SW,223,18.8,20.6,82,0.00,,,0.08,36.39,VWS V14.01,2013-11-06 19:06:00,
2013-11-06 14:07:00,53.8,48.5,29.81,SW,220,15.2,20.6,82,0.00,,,0.08,34.49,VWS V14.01,2013-11-06 19:07:00,
2013-11-06 14:09:00,53.8,48.6,29.81,SSW,199,16.0,20.6,83,0.00,,,0.08,36.45,VWS V14.01,2013-11-06 19:09:00,
2013-11-06 14:11:00,53.8,48.6,29.81,SW,233,18.4,20.6,83,0.00,,,0.08,29.12,VWS V14.01,2013-11-06 19:11:00,
2013-11-06 14:12:00,53.9,48.7,29.81,WSW,237,17.0,20.6,83,0.00,,,0.08,26.43,VWS V14.01,2013-11-06 19:12:00,
2013-11-06 14:13:00,53.7,48.5,29.82,SSW,204,10.5,20.6,83,0.00,,,0.08,29.98,VWS V14.01,2013-11-06 19:13:00,
2013-11-06 14:14:00,53.7,48.7,29.80,SSW,202,14.5,20.6,83,0.00,,,0.08,30.34,VWS V14.01,2013-11-06 19:14:00,
2013-11-06 14:15:00,53.7,48.8,29.81,SSW,212,14.1,20.6,84,0.00,,,0.08,34.00,VWS V14.01,2013-11-06 19:15:00,
2013-11-06 14:16:00,53.7,48.9,29.81,SW,214,15.0,20.6,84,0.00,,,0.08,34.00,VWS V14.01,2013-11-06 19:16:00,
2013-11-06 14:18:00,53.8,48.8,29.81,SW,214,14.8,20.6,83,0.00,,,0.08,29.61,VWS V14.01,2013-11-06 19:18:00,
2013-11-06 14:19:00,53.8,48.8,29.81,SW,214,14.8,20.6,83,0.00,,,0.08,29.61,VWS V14.01,2013-11-06 19:19:00,
2013-11-06 14:21:00,53.6,48.9,29.82,SW,225,11.7,20.6,84,0.00,,,0.08,31.81,VWS V14.01,2013-11-06 19:21:00,
2013-11-06 14:22:00,53.7,49.0,29.82,SW,225,14.3,20.6,84,0.00,,,0.08,31.07,VWS V14.01,2013-11-06 19:22:00,
2013-11-06 14:24:00,53.7,48.9,29.81,SW,230,12.6,20.6,84,0.00,,,0.08,33.27,VWS V14.01,2013-11-06 19:24:00,
2013-11-06 14:26:00,53.7,49.0,29.81,SW,218,13.8,20.6,84,0.00,,,0.08,33.52,VWS V14.01,2013-11-06 19:26:00,
2013-11-06 14:27:00,53.8,49.1,29.81,SW,220,18.2,20.6,84,0.00,,,0.08,32.78,VWS V14.01,2013-11-06 19:27:00,
2013-11-06 14:29:00,53.7,48.9,29.81,SSW,212,12.6,20.6,84,0.00,,,0.08,30.53,VWS V14.01,2013-11-06 19:29:00,
2013-11-06 14:30:00,53.7,49.0,29.81,SW,233,13.3,20.6,84,0.00,,,0.08,31.32,VWS V14.01,2013-11-06 19:30:00,
2013-11-06 14:32:00,53.7,49.0,29.81,SW,217,10.5,20.6,84,0.00,,,0.08,35.47,VWS V14.01,2013-11-06 19:32:00,
2013-11-06 14:33:00,53.7,49.2,29.82,SW,228,12.4,20.6,84,0.00,,,0.08,31.32,VWS V14.01,2013-11-06 19:33:00,
2013-11-06 14:34:00,53.8,49.2,29.82,SW,236,15.5,20.6,84,0.00,,,0.08,29.12,VWS V14.01,2013-11-06 19:34:00,
2013-11-06 14:35:00,53.8,49.1,29.82,SW,231,16.2,20.6,84,0.00,,,0.08,24.85,VWS V14.01,2013-11-06 19:35:00,
2013-11-06 14:38:00,53.8,49.0,29.83,SSW,212,14.0,20.6,84,0.00,,,0.08,20.45,VWS V14.01,2013-11-06 19:38:00,
2013-11-06 14:39:00,53.9,49.2,29.83,SW,233,16.7,20.6,84,0.00,,,0.08,19.35,VWS V14.01,2013-11-06 19:39:00,
2013-11-06 14:40:00,53.8,49.0,29.83,WSW,248,15.8,20.6,84,0.00,,,0.08,19.35,VWS V14.01,2013-11-06 19:40:00,
2013-11-06 14:41:00,53.7,48.9,29.83,SW,217,9.2,20.6,84,0.00,,,0.08,19.35,VWS V14.01,2013-11-06 19:41:00,
2013-11-06 14:43:00,53.8,49.1,29.84,SW,230,14.1,20.6,84,0.00,,,0.08,17.64,VWS V14.01,2013-11-06 19:43:00,
2013-11-06 14:44:00,53.8,49.1,29.84,WSW,238,16.4,20.6,84,0.00,,,0.08,16.91,VWS V14.01,2013-11-06 19:44:00,
2013-11-06 14:46:00,53.8,49.0,29.84,SW,229,14.3,20.6,84,0.00,,,0.08,14.47,VWS V14.01,2013-11-06 19:46:00,
2013-11-06 14:50:00,53.8,49.0,29.85,SW,235,13.3,20.6,84,0.00,,,0.08,12.94,VWS V14.01,2013-11-06 19:50:00,
2013-11-06 14:51:00,53.8,46.8,29.85,WSW,237,16.2,20.6,77,0.00,,,0.08,12.70,VWS V14.01,2013-11-06 19:51:00,
2013-11-06 14:52:00,53.8,49.0,29.85,WSW,254,15.0,20.8,84,0.00,,,0.08,13.43,VWS V14.01,2013-11-06 19:52:00,
2013-11-06 14:55:00,53.9,49.1,29.85,WSW,248,15.3,20.8,84,0.00,,,0.08,14.47,VWS V14.01,2013-11-06 19:55:00,
2013-11-06 14:56:00,53.8,49.0,29.85,WSW,238,10.4,20.8,84,0.00,,,0.08,14.22,VWS V14.01,2013-11-06 19:56:00,
2013-11-06 14:57:00,53.8,49.1,29.85,West,262,11.2,20.8,84,0.00,,,0.08,14.16,VWS V14.01,2013-11-06 19:57:00,
2013-11-06 14:58:00,53.8,49.1,29.86,WSW,239,12.8,20.8,84,0.00,,,0.08,14.84,VWS V14.01,2013-11-06 19:58:00,
2013-11-06 15:01:00,54.0,49.0,29.85,WSW,237,18.2,21.2,83,0.00,,,0.08,12.03,VWS V14.01,2013-11-06 20:01:00,
2013-11-06 15:02:00,54.1,47.2,29.85,WSW,248,16.0,19.4,78,0.00,,,0.08,13.13,VWS V14.01,2013-11-06 20:02:00,
2013-11-06 15:03:00,53.9,48.8,29.86,WSW,238,13.8,16.0,83,0.00,,,0.08,11.72,VWS V14.01,2013-11-06 20:03:00,
2013-11-06 15:06:00,54.0,48.8,29.85,WSW,247,18.4,18.4,82,0.00,,,0.08,13.74,VWS V14.01,2013-11-06 20:06:00,
2013-11-06 15:07:00,54.0,48.8,29.85,WSW,249,19.4,19.4,82,0.00,,,0.08,12.03,VWS V14.01,2013-11-06 20:07:00,
2013-11-06 15:08:00,54.0,47.2,29.86,WSW,252,20.8,20.8,78,0.00,,,0.08,12.94,VWS V14.01,2013-11-06 20:08:00,
2013-11-06 15:10:00,54.0,49.0,29.86,SW,236,17.0,17.0,83,0.00,,,0.08,9.89,VWS V14.01,2013-11-06 20:10:00,
2013-11-06 15:12:00,54.0,49.0,29.85,SW,235,19.6,19.6,83,0.00,,,0.08,10.20,VWS V14.01,2013-11-06 20:12:00,
2013-11-06 15:13:00,53.8,48.9,29.85,SW,228,14.1,19.6,83,0.00,,,0.08,9.83,VWS V14.01,2013-11-06 20:13:00,
2013-11-06 15:14:00,53.9,49.0,29.85,SW,230,15.2,15.2,83,0.00,,,0.08,10.07,VWS V14.01,2013-11-06 20:14:00,
2013-11-06 15:15:00,53.8,49.0,29.86,WSW,250,16.4,16.4,84,0.00,,,0.08,9.89,VWS V14.01,2013-11-06 20:15:00,
2013-11-06 15:18:00,53.9,49.1,29.85,WSW,242,13.5,13.5,84,0.00,,,0.08,12.70,VWS V14.01,2013-11-06 20:18:00,
2013-11-06 15:20:00,53.8,48.9,29.85,West,271,12.3,14.8,84,0.00,,,0.08,14.16,VWS V14.01,2013-11-06 20:20:00,
2013-11-06 15:21:00,53.8,49.0,29.85,WSW,249,11.4,12.3,84,0.00,,,0.08,14.22,VWS V14.01,2013-11-06 20:21:00,
2013-11-06 15:22:00,53.9,49.2,29.84,SW,232,13.3,15.7,84,0.00,,,0.08,13.37,VWS V14.01,2013-11-06 20:22:00,
2013-11-06 15:24:00,53.9,49.1,29.85,SW,233,20.5,20.5,84,0.00,,,0.08,14.16,VWS V14.01,2013-11-06 20:24:00,
2013-11-06 15:25:00,53.9,49.1,29.85,WSW,246,12.8,20.5,84,0.00,,,0.08,17.52,VWS V14.01,2013-11-06 20:25:00,
2013-11-06 15:26:00,53.9,49.2,29.85,WSW,243,16.4,16.4,84,0.00,,,0.08,16.91,VWS V14.01,2013-11-06 20:26:00,
2013-11-06 15:27:00,53.9,49.3,29.85,SW,236,17.6,17.6,84,0.00,,,0.08,13.86,VWS V14.01,2013-11-06 20:27:00,
2013-11-06 15:29:00,53.8,49.2,29.85,West,269,13.6,13.8,84,0.00,,,0.08,7.14,VWS V14.01,2013-11-06 20:29:00,
2013-11-06 15:30:00,53.7,49.1,29.85,WSW,239,9.5,13.8,85,0.00,,,0.08,7.14,VWS V14.01,2013-11-06 20:30:00,
2013-11-06 15:32:00,53.9,49.3,29.85,SW,230,20.0,20.0,85,0.00,,,0.08,7.45,VWS V14.01,2013-11-06 20:32:00,
2013-11-06 15:33:00,53.9,49.4,29.85,WSW,243,15.2,15.2,85,0.00,,,0.08,7.14,VWS V14.01,2013-11-06 20:33:00,
2013-11-06 15:34:00,54.0,49.5,29.85,SW,233,18.9,18.9,85,0.00,,,0.08,6.90,VWS V14.01,2013-11-06 20:34:00,
2013-11-06 15:35:00,53.9,49.5,29.85,WSW,241,18.2,18.9,85,0.00,,,0.08,8.06,VWS V14.01,2013-11-06 20:35:00,
2013-11-06 15:36:00,53.8,49.3,29.86,SW,235,13.3,17.6,85,0.00,,,0.08,5.92,VWS V14.01,2013-11-06 20:36:00,
2013-11-06 15:39:00,54.0,49.4,29.86,WSW,246,16.9,16.9,85,0.00,,,0.08,9.58,VWS V14.01,2013-11-06 20:39:00,
2013-11-06 15:40:00,53.9,49.5,29.85,WSW,258,14.5,15.0,85,0.00,,,0.08,10.74,VWS V14.01,2013-11-06 20:40:00,
2013-11-06 15:41:00,53.9,49.5,29.86,SW,228,16.0,16.0,85,0.00,,,0.08,9.89,VWS V14.01,2013-11-06 20:41:00,
2013-11-06 15:42:00,53.9,49.5,29.86,SW,228,16.0,16.0,85,0.00,,,0.08,9.89,VWS V14.01,2013-11-06 20:42:00,
2013-11-06 15:43:00,53.9,49.5,29.85,WSW,241,11.7,11.7,85,0.00,,,0.08,12.03,VWS V14.01,2013-11-06 20:43:00,
2013-11-06 15:45:00,54.0,49.7,29.86,SW,229,12.8,12.8,85,0.00,,,0.08,13.25,VWS V14.01,2013-11-06 20:45:00,
2013-11-06 15:46:00,54.1,49.8,29.85,West,262,14.8,15.8,85,0.00,,,0.08,13.43,VWS V14.01,2013-11-06 20:46:00,
2013-11-06 15:47:00,54.0,49.7,29.88,SW,232,17.2,17.2,85,0.00,,,0.08,15.20,VWS V14.01,2013-11-06 20:47:00,
2013-11-06 15:48:00,53.9,49.5,29.86,WSW,252,10.7,17.2,85,0.00,,,0.08,15.57,VWS V14.01,2013-11-06 20:48:00,
2013-11-06 15:50:00,54.1,49.7,29.86,SW,233,15.5,16.2,85,0.00,,,0.08,14.22,VWS V14.01,2013-11-06 20:50:00,
2013-11-06 15:51:00,53.9,49.4,29.86,WSW,253,10.4,10.4,85,0.00,,,0.08,14.77,VWS V14.01,2013-11-06 20:51:00,
2013-11-06 15:52:00,54.0,49.6,29.86,SW,235,15.2,15.2,85,0.00,,,0.08,14.16,VWS V14.01,2013-11-06 20:52:00,
2013-11-06 15:54:00,54.0,49.8,29.86,WSW,245,16.2,16.2,86,0.00,,,0.08,14.71,VWS V14.01,2013-11-06 20:54:00,
2013-11-06 15:55:00,53.9,49.7,29.86,SW,230,9.5,16.2,86,0.00,,,0.08,14.47,VWS V14.01,2013-11-06 20:55:00,
2013-11-06 15:57:00,54.0,49.8,29.85,WSW,240,13.3,13.8,85,0.00,,,0.08,16.91,VWS V14.01,2013-11-06 20:57:00,
2013-11-06 15:59:00,54.0,49.7,29.84,WSW,251,9.2,16.0,85,0.00,,,0.08,15.93,VWS V14.01,2013-11-06 20:59:00,
2013-11-06 16:00:00,54.0,49.8,29.85,WSW,252,10.0,10.0,85,0.00,,,0.08,14.16,VWS V14.01,2013-11-06 21:00:00,
2013-11-06 16:02:00,54.2,50.0,29.85,WSW,246,14.1,15.3,85,0.00,,,0.08,14.47,VWS V14.01,2013-11-06 21:02:00,
2013-11-06 16:04:00,54.3,47.9,29.84,SW,236,16.2,16.2,79,0.00,,,0.08,13.98,VWS V14.01,2013-11-06 21:04:00,
2013-11-06 16:05:00,54.2,49.6,29.85,WSW,240,13.3,16.2,84,0.00,,,0.08,12.52,VWS V14.01,2013-11-06 21:05:00,
2013-11-06 16:07:00,54.2,49.5,29.84,WSW,255,12.8,12.8,84,0.00,,,0.08,14.16,VWS V14.01,2013-11-06 21:07:00,
2013-11-06 16:09:00,54.2,49.6,29.83,WSW,243,14.5,14.5,84,0.00,,,0.08,12.03,VWS V14.01,2013-11-06 21:09:00,
2013-11-06 16:10:00,54.3,49.6,29.82,WSW,257,10.5,14.5,84,0.00,,,0.08,12.64,VWS V14.01,2013-11-06 21:10:00,
2013-11-06 16:12:00,54.2,49.5,29.84,West,261,8.5,12.8,84,0.00,,,0.08,12.27,VWS V14.01,2013-11-06 21:12:00,
2013-11-06 16:13:00,54.1,49.4,29.84,WSW,254,14.6,14.6,84,0.00,,,0.08,12.27,VWS V14.01,2013-11-06 21:13:00,
2013-11-06 16:15:00,54.2,49.5,29.84,West,270,16.5,16.5,84,0.00,,,0.08,14.47,VWS V14.01,2013-11-06 21:15:00,
2013-11-06 16:16:00,54.2,49.5,29.85,WSW,253,14.1,16.5,84,0.00,,,0.08,17.22,VWS V14.01,2013-11-06 21:16:00,
2013-11-06 16:18:00,54.0,49.5,29.85,West,259,10.2,11.6,85,0.00,,,0.08,19.35,VWS V14.01,2013-11-06 21:18:00,
2013-11-06 16:21:00,54.1,49.8,29.84,West,259,11.6,11.6,85,0.00,,,0.08,11.78,VWS V14.01,2013-11-06 21:21:00,
2013-11-06 16:22:00,54.1,49.8,29.84,SW,232,9.3,12.4,85,0.00,,,0.08,11.78,VWS V14.01,2013-11-06 21:22:00,
2013-11-06 16:25:00,54.3,49.9,29.85,SW,229,12.6,17.4,85,0.00,,,0.08,12.03,VWS V14.01,2013-11-06 21:25:00,
2013-11-06 16:26:00,54.3,49.9,29.85,SW,229,12.6,17.4,85,0.00,,,0.08,12.03,VWS V14.01,2013-11-06 21:26:00,
2013-11-06 16:27:00,54.2,49.8,29.85,WSW,241,12.3,13.8,85,0.00,,,0.08,10.81,VWS V14.01,2013-11-06 21:27:00,
2013-11-06 16:30:00,54.2,49.6,29.84,SW,234,9.2,15.2,84,0.00,,,0.08,11.42,VWS V14.01,2013-11-06 21:30:00,
2013-11-06 16:32:00,54.2,49.8,29.85,SW,230,13.3,13.3,85,0.00,,,0.08,8.12,VWS V14.01,2013-11-06 21:32:00,
2013-11-06 16:33:00,54.2,49.8,29.85,WSW,251,14.8,14.8,85,0.00,,,0.08,7.39,VWS V14.01,2013-11-06 21:33:00,
2013-11-06 16:35:00,54.2,49.7,29.84,SW,231,11.7,12.3,85,0.00,,,0.08,12.03,VWS V14.01,2013-11-06 21:35:00,
2013-11-06 16:38:00,54.2,49.6,29.85,WSW,241,10.5,16.0,84,0.00,,,0.08,8.61,VWS V14.01,2013-11-06 21:38:00,
2013-11-06 16:39:00,54.3,49.8,29.85,WSW,247,9.9,10.5,85,0.00,,,0.08,7.14,VWS V14.01,2013-11-06 21:39:00,
2013-11-06 16:40:00,54.1,49.7,29.85,SW,227,12.3,13.3,85,0.00,,,0.08,5.92,VWS V14.01,2013-11-06 21:40:00,
2013-11-06 16:41:00,54.4,50.0,29.85,SW,226,16.7,16.7,85,0.00,,,0.08,7.14,VWS V14.01,2013-11-06 21:41:00,
2013-11-06 16:43:00,54.2,49.7,29.85,SW,231,16.5,16.5,85,0.00,,,0.08,5.43,VWS V14.01,2013-11-06 21:43:00,
2013-11-06 16:44:00,54.2,49.7,29.84,WSW,239,14.1,16.5,85,0.00,,,0.08,7.51,VWS V14.01,2013-11-06 21:44:00,
2013-11-06 16:45:00,54.0,49.6,29.84,SW,236,10.7,14.1,85,0.00,,,0.08,7.75,VWS V14.01,2013-11-06 21:45:00,
2013-11-06 16:46:00,54.2,49.9,29.85,WSW,245,14.6,14.6,85,0.00,,,0.08,6.23,VWS V14.01,2013-11-06 21:46:00,
2013-11-06 16:47:00,53.9,49.7,29.85,SW,219,10.0,14.6,85,0.00,,,0.08,7.14,VWS V14.01,2013-11-06 21:47:00,
2013-11-06 16:49:00,54.0,49.8,29.84,SW,230,13.8,13.8,86,0.00,,,0.08,5.19,VWS V14.01,2013-11-06 21:49:00,
2013-11-06 16:50:00,54.0,49.9,29.84,WSW,240,12.9,13.8,86,0.00,,,0.08,4.70,VWS V14.01,2013-11-06 21:50:00,
2013-11-06 16:51:00,53.9,49.8,29.84,WSW,250,10.5,12.9,86,0.00,,,0.08,4.70,VWS V14.01,2013-11-06 21:51:00,
2013-11-06 16:52:00,53.9,49.9,29.84,WSW,239,14.3,14.3,86,0.00,,,0.08,4.70,VWS V14.01,2013-11-06 21:52:00,
2013-11-06 16:54:00,54.0,50.0,29.84,SW,236,9.9,11.9,87,0.00,,,0.08,2.75,VWS V14.01,2013-11-06 21:54:00,
2013-11-06 16:55:00,53.8,50.0,29.84,WSW,240,10.5,10.5,87,0.00,,,0.08,1.95,VWS V14.01,2013-11-06 21:55:00,
2013-11-06 16:56:00,54.0,50.1,29.84,WSW,246,16.2,16.2,87,0.00,,,0.08,2.01,VWS V14.01,2013-11-06 21:56:00,
2013-11-06 16:57:00,53.9,50.0,29.85,WSW,240,8.8,16.2,87,0.00,,,0.08,2.01,VWS V14.01,2013-11-06 21:57:00,
2013-11-06 16:58:00,54.0,50.2,29.84,WSW,251,14.6,14.6,87,0.00,,,0.08,2.26,VWS V14.01,2013-11-06 21:58:00,
2013-11-06 16:59:00,54.0,50.2,29.84,SW,216,14.6,14.6,87,0.00,,,0.08,1.95,VWS V14.01,2013-11-06 21:59:00,
2013-11-06 17:01:00,53.8,49.9,29.82,SW,233,15.8,17.7,87,0.00,,,0.08,2.26,VWS V14.01,2013-11-06 22:01:00,
2013-11-06 17:02:00,53.8,49.9,29.82,SW,233,15.8,17.7,87,0.00,,,0.08,2.26,VWS V14.01,2013-11-06 22:02:00,
2013-11-06 17:05:00,53.9,50.1,29.83,WSW,244,15.8,15.8,87,0.00,,,0.08,1.53,VWS V14.01,2013-11-06 22:05:00,
2013-11-06 17:06:00,53.9,50.2,29.84,West,268,14.1,14.1,87,0.00,,,0.08,2.01,VWS V14.01,2013-11-06 22:06:00,
2013-11-06 17:07:00,53.7,50.0,29.83,SW,234,11.1,16.7,87,0.00,,,0.08,1.77,VWS V14.01,2013-11-06 22:07:00,
2013-11-06 17:09:00,53.8,50.2,29.84,WSW,243,11.9,11.9,88,0.00,,,0.08,1.77,VWS V14.01,2013-11-06 22:09:00,
2013-11-06 17:11:00,53.9,50.3,29.84,WSW,255,17.9,17.9,87,0.00,,,0.08,1.47,VWS V14.01,2013-11-06 22:11:00,
2013-11-06 17:13:00,53.7,50.0,29.84,WSW,252,11.9,14.3,87,0.00,,,0.08,1.95,VWS V14.01,2013-11-06 22:13:00,
2013-11-06 17:14:00,53.6,50.1,29.84,WSW,245,12.6,21.0,88,0.00,,,0.08,2.38,VWS V14.01,2013-11-06 22:14:00,
2013-11-06 17:15:00,53.6,50.1,29.84,WSW,245,12.6,21.0,88,0.00,,,0.08,2.38,VWS V14.01,2013-11-06 22:15:00,
2013-11-06 17:16:00,53.8,50.3,29.84,WSW,250,15.0,16.5,88,0.00,,,0.08,1.40,VWS V14.01,2013-11-06 22:16:00,
2013-11-06 17:17:00,53.6,50.3,29.83,WSW,245,12.3,15.7,89,0.00,,,0.08,0.06,VWS V14.01,2013-11-06 22:17:00,
2013-11-06 17:18:00,53.6,50.4,29.84,SW,236,12.4,15.8,89,0.00,,,0.08,0.00,VWS V14.01,2013-11-06 22:18:00,
2013-11-06 17:19:00,53.6,50.4,29.84,SW,236,12.4,15.8,89,0.00,,,0.08,0.00,VWS V14.01,2013-11-06 22:19:00,
2013-11-06 17:20:00,53.6,50.4,29.85,SW,235,11.9,16.0,89,0.00,,,0.08,0.00,VWS V14.01,2013-11-06 22:20:00,
2013-11-06 17:21:00,53.7,50.5,29.85,WSW,248,14.6,14.6,89,0.00,,,0.08,0.00,VWS V14.01,2013-11-06 22:21:00,
2013-11-06 17:23:00,53.7,50.6,29.86,WSW,243,14.3,19.1,89,0.00,,,0.08,0.00,VWS V14.01,2013-11-06 22:23:00,
2013-11-06 17:24:00,53.6,50.5,29.86,SW,229,11.1,14.3,89,0.00,,,0.08,0.00,VWS V14.01,2013-11-06 22:24:00,
2013-11-06 17:26:00,53.6,50.7,29.85,WSW,241,12.6,14.3,90,0.00,,,0.08,0.00,VWS V14.01,2013-11-06 22:26:00,
2013-11-06 17:27:00,53.5,50.7,29.85,WSW,246,13.1,13.1,90,0.00,,,0.08,0.00,VWS V14.01,2013-11-06 22:27:00,
2013-11-06 17:29:00,53.7,51.0,29.84,WSW,258,16.4,16.4,91,0.00,,,0.08,0.00,VWS V14.01,2013-11-06 22:29:00,
2013-11-06 17:30:00,53.4,50.7,29.85,SW,220,8.1,16.4,91,0.00,,,0.08,0.12,VWS V14.01,2013-11-06 22:30:00,
2013-11-06 17:31:00,53.5,50.3,29.85,WSW,244,11.7,13.6,89,0.00,,,0.08,0.00,VWS V14.01,2013-11-06 22:31:00,
2013-11-06 17:32:00,53.5,50.3,29.85,WSW,244,11.7,13.6,89,0.00,,,0.08,0.00,VWS V14.01,2013-11-06 22:32:00,
2013-11-06 17:33:00,53.4,50.8,29.85,WSW,238,9.3,9.7,91,0.00,,,0.08,0.43,VWS V14.01,2013-11-06 22:33:00,
2013-11-06 17:37:00,53.7,51.0,29.84,WSW,248,14.6,14.6,91,0.00,,,0.08,0.00,VWS V14.01,2013-11-06 22:37:00,
2013-11-06 17:38:00,53.6,50.9,29.84,WSW,237,10.7,10.7,90,0.00,,,0.08,0.00,VWS V14.01,2013-11-06 22:38:00,
2013-11-06 17:39:00,53.5,50.8,29.84,WSW,238,10.7,10.7,91,0.00,,,0.08,0.00,VWS V14.01,2013-11-06 22:39:00,
2013-11-06 17:42:00,53.7,51.0,29.85,WSW,255,18.2,18.2,91,0.00,,,0.08,0.00,VWS V14.01,2013-11-06 22:42:00,
2013-11-06 17:43:00,53.5,50.9,29.83,WSW,250,15.3,15.3,91,0.00,,,0.08,0.00,VWS V14.01,2013-11-06 22:43:00,
2013-11-06 17:44:00,53.4,50.8,29.84,SW,230,13.5,15.3,91,0.00,,,0.08,0.00,VWS V14.01,2013-11-06 22:44:00,
2013-11-06 17:46:00,53.2,50.7,29.85,West,265,11.9,16.9,91,0.00,,,0.08,0.00,VWS V14.01,2013-11-06 22:46:00,
2013-11-06 17:47:00,53.5,51.0,29.85,WSW,237,15.0,15.0,91,0.00,,,0.08,0.43,VWS V14.01,2013-11-06 22:47:00,
2013-11-06 17:49:00,53.3,51.0,29.86,WSW,257,12.3,14.6,92,0.00,,,0.08,0.00,VWS V14.01,2013-11-06 22:49:00,
2013-11-06 17:50:00,53.5,51.3,29.85,WSW,248,15.8,15.8,92,0.00,,,0.08,0.00,VWS V14.01,2013-11-06 22:50:00,
2013-11-06 17:51:00,53.4,51.2,29.85,West,259,16.5,16.5,92,0.00,,,0.08,0.00,VWS V14.01,2013-11-06 22:51:00,
2013-11-06 17:52:00,53.2,51.0,29.85,WSW,256,10.7,11.7,92,0.00,,,0.08,0.00,VWS V14.01,2013-11-06 22:52:00,
2013-11-06 17:53:00,53.2,51.2,29.86,WSW,251,11.4,12.8,93,0.00,,,0.08,0.00,VWS V14.01,2013-11-06 22:53:00,
2013-11-06 17:54:00,53.3,51.3,29.86,WSW,238,11.9,12.8,93,0.00,,,0.08,0.06,VWS V14.01,2013-11-06 22:54:00,
2013-11-06 17:55:00,53.1,51.2,29.85,WSW,253,12.4,13.3,93,0.00,,,0.08,0.00,VWS V14.01,2013-11-06 22:55:00,
2013-11-06 17:56:00,53.2,51.3,29.85,SW,234,10.4,12.4,93,0.00,,,0.08,0.12,VWS V14.01,2013-11-06 22:56:00,
2013-11-06 17:58:00,53.1,51.3,29.85,SSW,211,12.8,12.8,94,0.00,,,0.08,0.00,VWS V14.01,2013-11-06 22:58:00,
2013-11-06 18:00:00,53.2,51.5,29.86,WSW,240,15.0,15.8,94,0.00,,,0.00,0.00,VWS V14.01,2013-11-06 23:00:00,
2013-11-06 18:01:00,53.2,51.5,29.86,WSW,240,15.0,15.8,94,0.00,,,0.08,0.00,VWS V14.01,2013-11-06 23:01:00,
2013-11-06 18:02:00,53.2,51.5,29.86,WSW,240,15.0,15.8,94,0.00,,,0.08,0.00,VWS V14.01,2013-11-06 23:02:00,
2013-11-06 18:04:00,53.2,51.5,29.86,WSW,240,15.0,15.8,94,0.00,,,0.08,0.00,VWS V14.01,2013-11-06 23:04:00,
2013-11-06 18:05:00,52.8,51.3,29.86,West,263,7.5,8.3,95,0.00,,,0.08,0.00,VWS V14.01,2013-11-06 23:05:00,
2013-11-06 18:08:00,53.0,51.6,29.86,SW,235,14.3,17.4,95,0.00,,,0.08,0.00,VWS V14.01,2013-11-06 23:08:00,
2013-11-06 18:09:00,53.0,51.7,29.86,West,260,12.4,14.3,95,0.00,,,0.08,0.12,VWS V14.01,2013-11-06 23:09:00,
2013-11-06 18:10:00,52.9,51.7,29.85,WSW,239,10.2,13.8,96,0.00,,,0.08,0.00,VWS V14.01,2013-11-06 23:10:00,
2013-11-06 18:11:00,52.8,51.6,29.84,WSW,241,9.3,10.2,96,0.00,,,0.08,0.00,VWS V14.01,2013-11-06 23:11:00,
2013-11-06 18:14:00,52.9,51.8,29.85,WSW,251,9.3,12.3,96,0.00,,,0.08,0.00,VWS V14.01,2013-11-06 23:14:00,
2013-11-06 18:15:00,52.8,51.9,29.88,WSW,255,11.9,11.9,96,0.00,,,0.08,0.00,VWS V14.01,2013-11-06 23:15:00,
2013-11-06 18:16:00,52.9,52.0,29.86,WSW,249,15.0,15.0,97,0.00,,,0.08,0.00,VWS V14.01,2013-11-06 23:16:00,
2013-11-06 18:17:00,52.8,51.9,29.86,WSW,258,11.1,15.0,97,0.00,,,0.08,0.00,VWS V14.01,2013-11-06 23:17:00,
2013-11-06 18:20:00,52.8,52.0,29.86,WSW,251,9.3,12.8,97,0.00,,,0.08,0.73,VWS V14.01,2013-11-06 23:20:00,
2013-11-06 18:21:00,52.8,52.0,29.86,WSW,242,9.2,14.3,97,0.00,,,0.08,0.00,VWS V14.01,2013-11-06 23:21:00,
2013-11-06 18:22:00,52.7,52.0,29.86,WSW,257,12.4,12.4,97,0.00,,,0.08,0.00,VWS V14.01,2013-11-06 23:22:00,
2013-11-06 18:23:00,52.8,52.1,29.86,WSW,250,10.2,12.4,97,0.00,,,0.08,0.00,VWS V14.01,2013-11-06 23:23:00,
2013-11-06 18:25:00,52.8,52.1,29.86,West,264,12.4,15.5,98,0.00,,,0.08,0.00,VWS V14.01,2013-11-06 23:25:00,
2013-11-06 18:26:00,52.7,52.0,29.87,West,280,16.4,16.4,98,0.00,,,0.08,0.12,VWS V14.01,2013-11-06 23:26:00,
2013-11-06 18:27:00,50.4,49.4,29.87,NW,310,17.6,17.6,96,0.04,,,0.12,0.00,VWS V14.01,2013-11-06 23:27:00,
2013-11-06 18:28:00,49.4,47.7,29.87,NNW,328,16.2,18.2,94,0.04,,,0.12,0.00,VWS V14.01,2013-11-06 23:28:00,
2013-11-06 18:31:00,48.6,46.9,29.89,NW,313,15.5,20.8,94,0.04,,,0.12,0.00,VWS V14.01,2013-11-06 23:31:00,
2013-11-06 18:32:00,48.5,46.9,29.88,NNW,340,15.0,22.0,94,0.04,,,0.12,0.12,VWS V14.01,2013-11-06 23:32:00,
2013-11-06 18:33:00,48.4,46.9,29.89,NW,313,18.2,18.2,95,0.04,,,0.12,0.00,VWS V14.01,2013-11-06 23:33:00,
2013-11-06 18:36:00,48.2,47.0,29.90,NNW,330,14.6,16.5,96,0.04,,,0.12,0.00,VWS V14.01,2013-11-06 23:36:00,
2013-11-06 18:37:00,48.0,46.9,29.89,NW,311,12.9,14.6,96,0.04,,,0.12,0.00,VWS V14.01,2013-11-06 23:37:00,
2013-11-06 18:39:00,47.7,46.7,29.89,WNW,299,14.1,15.8,96,0.04,,,0.12,0.00,VWS V14.01,2013-11-06 23:39:00,
2013-11-06 18:40:00,46.7,45.6,29.89,WNW,299,17.2,17.2,96,0.04,,,0.12,0.43,VWS V14.01,2013-11-06 23:40:00,
2013-11-06 18:41:00,46.7,45.6,29.90,West,279,16.2,16.5,96,0.04,,,0.12,0.00,VWS V14.01,2013-11-06 23:41:00,
2013-11-06 18:42:00,46.5,45.4,29.90,WNW,284,21.2,21.2,96,0.04,,,0.12,0.00,VWS V14.01,2013-11-06 23:42:00,
2013-11-06 18:44:00,46.6,45.5,29.89,WNW,291,17.6,23.2,96,0.04,,,0.12,0.00,VWS V14.01,2013-11-06 23:44:00,
2013-11-06 18:46:00,46.5,45.4,29.90,WNW,295,15.5,22.5,96,0.04,,,0.12,0.12,VWS V14.01,2013-11-06 23:46:00,
2013-11-06 18:49:00,45.7,44.6,29.90,WNW,297,17.2,17.2,96,0.04,,,0.12,0.73,VWS V14.01,2013-11-06 23:49:00,
2013-11-06 18:51:00,45.2,44.0,29.91,NNW,343,16.4,16.4,95,0.04,,,0.12,0.00,VWS V14.01,2013-11-06 23:51:00,
2013-11-06 18:52:00,44.9,43.5,29.91,NNW,344,12.1,21.8,95,0.04,,,0.12,0.00,VWS V14.01,2013-11-06 23:52:00,
2013-11-06 18:54:00,45.0,43.7,29.91,NW,311,18.8,18.8,95,0.04,,,0.12,0.73,VWS V14.01,2013-11-06 23:54:00,
2013-11-06 18:55:00,45.1,43.5,29.95,NW,307,19.3,19.3,94,0.04,,,0.12,0.00,VWS V14.01,2013-11-06 23:55:00,
2013-11-06 18:57:00,44.3,42.2,29.95,NW,316,17.0,17.0,92,0.04,,,0.12,0.00,VWS V14.01,2013-11-06 23:57:00,
2013-11-06 18:58:00,44.6,42.4,29.93,NNW,338,18.8,18.8,92,0.04,,,0.12,0.00,VWS V14.01,2013-11-06 23:58:00,
2013-11-06 18:59:00,44.5,42.3,29.92,NNW,334,15.7,15.7,92,0.04,,,0.12,0.12,VWS V14.01,2013-11-06 23:59:00,
2013-11-06 19:01:00,44.5,42.3,29.92,NNW,333,14.6,14.8,92,0.04,,,0.12,0.00,VWS V14.01,2013-11-07 00:01:00,
2013-11-06 19:02:00,44.1,42.0,29.92,NNW,328,18.9,18.9,92,0.04,,,0.12,0.00,VWS V14.01,2013-11-07 00:02:00,
2013-11-06 19:04:00,43.7,41.8,29.92,NNW,327,17.2,17.2,93,0.04,,,0.12,0.00,VWS V14.01,2013-11-07 00:04:00,
2013-11-06 19:05:00,43.7,41.8,29.92,NNW,327,17.2,17.2,93,0.04,,,0.12,0.00,VWS V14.01,2013-11-07 00:05:00,
2013-11-06 19:06:00,43.6,41.8,29.92,NW,326,19.4,22.9,93,0.04,,,0.12,0.00,VWS V14.01,2013-11-07 00:06:00,
2013-11-06 19:07:00,43.3,41.5,29.92,NW,313,19.3,19.4,93,0.04,,,0.12,0.43,VWS V14.01,2013-11-07 00:07:00,
2013-11-06 19:10:00,43.2,41.8,29.92,NNW,332,11.4,20.3,94,0.04,,,0.12,0.43,VWS V14.01,2013-11-07 00:10:00,
2013-11-06 19:11:00,43.1,41.8,29.94,NW,304,19.6,19.6,95,0.04,,,0.12,0.12,VWS V14.01,2013-11-07 00:11:00,
2013-11-06 19:12:00,42.9,41.7,29.94,NW,308,19.6,19.6,95,0.04,,,0.12,0.73,VWS V14.01,2013-11-07 00:12:00,
2013-11-06 19:16:00,42.8,41.8,29.94,WNW,301,18.2,18.2,96,0.04,,,0.12,0.00,VWS V14.01,2013-11-07 00:16:00,
2013-11-06 19:17:00,43.0,42.1,29.93,WNW,299,14.5,18.2,97,0.04,,,0.12,0.00,VWS V14.01,2013-11-07 00:17:00,
2013-11-06 19:19:00,43.0,42.2,29.93,NW,314,12.6,18.2,97,0.04,,,0.12,0.00,VWS V14.01,2013-11-07 00:19:00,
2013-11-06 19:21:00,42.9,42.1,29.94,NW,309,14.1,19.1,97,0.04,,,0.12,0.00,VWS V14.01,2013-11-07 00:21:00,
2013-11-06 19:22:00,42.9,42.1,29.94,WNW,299,15.7,15.7,97,0.04,,,0.12,0.73,VWS V14.01,2013-11-07 00:22:00,
2013-11-06 19:25:00,43.7,42.4,29.95,WNW,295,14.1,14.1,95,0.04,,,0.12,0.00,VWS V14.01,2013-11-07 00:25:00,
2013-11-06 19:26:00,43.6,42.0,29.94,NW,304,12.8,14.1,94,0.04,,,0.12,0.00,VWS V14.01,2013-11-07 00:26:00,
2013-11-06 19:28:00,43.8,41.9,29.95,WNW,294,16.7,16.7,93,0.00,,,0.12,0.00,VWS V14.01,2013-11-07 00:28:00,
2013-11-06 19:30:00,44.0,41.4,29.95,NW,313,16.0,16.0,91,0.00,,,0.12,0.00,VWS V14.01,2013-11-07 00:30:00,
2013-11-06 19:31:00,43.9,41.0,29.95,NNW,332,17.0,17.0,90,0.00,,,0.12,0.00,VWS V14.01,2013-11-07 00:31:00,
2013-11-06 19:32:00,43.9,40.6,29.93,NW,314,16.4,16.7,88,0.00,,,0.12,0.00,VWS V14.01,2013-11-07 00:32:00,
2013-11-06 19:33:00,43.9,40.3,29.94,NW,314,15.7,18.6,87,0.00,,,0.12,0.00,VWS V14.01,2013-11-07 00:33:00,
2013-11-06 19:35:00,43.9,40.1,29.95,NW,304,15.7,16.7,87,0.00,,,0.12,0.00,VWS V14.01,2013-11-07 00:35:00,
2013-11-06 19:36:00,43.7,40.2,29.95,NW,324,11.6,11.6,87,0.00,,,0.12,0.12,VWS V14.01,2013-11-07 00:36:00,
2013-11-06 19:37:00,43.7,40.0,29.94,NNW,327,15.8,19.4,87,0.00,,,0.12,0.00,VWS V14.01,2013-11-07 00:37:00,
2013-11-06 19:38:00,43.8,39.9,29.95,NNW,336,15.8,19.1,86,0.00,,,0.12,0.00,VWS V14.01,2013-11-07 00:38:00,
2013-11-06 19:39:00,43.7,39.8,29.95,North,1,13.5,15.8,86,0.00,,,0.12,0.00,VWS V14.01,2013-11-07 00:39:00,
2013-11-06 19:40:00,43.7,38.9,29.95,NW,326,16.2,16.2,83,0.00,,,0.12,0.00,VWS V14.01,2013-11-07 00:40:00,
2013-11-06 19:41:00,43.7,39.8,29.95,WNW,282,13.6,16.2,86,0.00,,,0.12,0.12,VWS V14.01,2013-11-07 00:41:00,
2013-11-06 19:43:00,43.6,40.1,29.94,NW,312,11.6,13.3,87,0.00,,,0.12,0.73,VWS V14.01,2013-11-07 00:43:00,
2013-11-06 19:44:00,43.6,40.0,29.95,NW,318,14.8,16.5,87,0.00,,,0.12,0.43,VWS V14.01,2013-11-07 00:44:00,
2013-11-06 19:45:00,43.5,39.9,29.95,WNW,301,13.5,13.5,87,0.00,,,0.12,0.00,VWS V14.01,2013-11-07 00:45:00,
2013-11-06 19:46:00,43.7,40.0,29.95,WNW,296,18.4,18.4,87,0.00,,,0.12,0.00,VWS V14.01,2013-11-07 00:46:00,
2013-11-06 19:49:00,43.6,39.5,29.94,NW,312,15.5,16.9,85,0.00,,,0.12,0.00,VWS V14.01,2013-11-07 00:49:00,
2013-11-06 19:50:00,43.5,39.3,29.95,WNW,293,12.8,16.0,85,0.00,,,0.12,0.00,VWS V14.01,2013-11-07 00:50:00,
2013-11-06 19:51:00,43.6,39.4,29.95,NW,309,13.5,13.5,85,0.00,,,0.12,0.00,VWS V14.01,2013-11-07 00:51:00,
2013-11-06 19:52:00,43.7,39.5,29.95,NW,307,15.2,15.2,85,0.00,,,0.12,0.00,VWS V14.01,2013-11-07 00:52:00,
2013-11-06 19:54:00,43.5,39.0,29.95,WNW,297,12.4,18.4,84,0.00,,,0.12,0.00,VWS V14.01,2013-11-07 00:54:00,
2013-11-06 19:56:00,43.5,39.1,29.95,NNW,332,14.1,15.0,84,0.00,,,0.12,0.00,VWS V14.01,2013-11-07 00:56:00,
2013-11-06 19:58:00,43.6,39.2,29.95,NW,324,12.3,12.3,84,0.00,,,0.12,0.00,VWS V14.01,2013-11-07 00:58:00,
2013-11-06 19:59:00,43.5,39.1,29.95,NW,314,14.0,14.0,84,0.00,,,0.12,0.43,VWS V14.01,2013-11-07 00:59:00,
2013-11-06 20:00:00,43.5,38.8,29.95,NW,309,14.0,15.8,84,0.00,,,0.12,0.00,VWS V14.01,2013-11-07 01:00:00,
2013-11-06 20:01:00,43.5,39.1,29.97,NW,308,13.3,14.0,84,0.00,,,0.12,0.73,VWS V14.01,2013-11-07 01:01:00,
2013-11-06 20:02:00,43.3,39.1,29.96,NW,312,9.3,13.3,85,0.00,,,0.12,0.00,VWS V14.01,2013-11-07 01:02:00,
2013-11-06 20:04:00,43.4,39.3,29.96,NW,320,11.2,12.1,85,0.00,,,0.12,0.00,VWS V14.01,2013-11-07 01:04:00,
2013-11-06 20:05:00,43.7,39.4,29.97,WNW,288,14.3,14.3,85,0.00,,,0.12,0.00,VWS V14.01,2013-11-07 01:05:00,
2013-11-06 20:07:00,43.5,39.1,29.97,NW,304,16.5,16.5,84,0.00,,,0.12,0.00,VWS V14.01,2013-11-07 01:07:00,
2013-11-06 20:08:00,43.3,39.1,29.97,NW,309,11.4,16.5,85,0.00,,,0.12,0.43,VWS V14.01,2013-11-07 01:08:00,
2013-11-06 20:09:00,43.3,39.3,29.97,NNW,337,10.9,15.2,86,0.00,,,0.12,0.00,VWS V14.01,2013-11-07 01:09:00,
2013-11-06 20:10:00,43.3,39.2,29.96,NW,310,11.4,16.2,85,0.00,,,0.12,0.00,VWS V14.01,2013-11-07 01:10:00,
2013-11-06 20:11:00,43.3,39.2,29.97,WNW,298,13.6,13.6,85,0.00,,,0.12,0.12,VWS V14.01,2013-11-07 01:11:00,
2013-11-06 20:12:00,43.5,39.2,29.96,NW,304,19.8,19.8,85,0.00,,,0.12,0.12,VWS V14.01,2013-11-07 01:12:00,
2013-11-06 20:13:00,43.4,38.8,29.96,WNW,299,18.6,19.8,84,0.00,,,0.12,0.73,VWS V14.01,2013-11-07 01:13:00,
2013-11-06 20:14:00,43.5,38.8,29.96,NW,320,15.5,18.8,84,0.00,,,0.12,0.00,VWS V14.01,2013-11-07 01:14:00,
2013-11-06 20:16:00,43.2,38.7,29.95,NW,314,10.0,10.7,84,0.00,,,0.12,0.00,VWS V14.01,2013-11-07 01:16:00,
2013-11-06 20:17:00,43.2,38.9,29.95,NW,311,12.4,12.4,85,0.00,,,0.12,0.00,VWS V14.01,2013-11-07 01:17:00,
2013-11-06 20:18:00,43.3,38.9,29.95,NW,310,15.0,15.0,84,0.00,,,0.12,0.00,VWS V14.01,2013-11-07 01:18:00,
2013-11-06 20:19:00,43.2,38.9,29.95,WNW,299,12.6,12.6,85,0.00,,,0.12,0.00,VWS V14.01,2013-11-07 01:19:00,
2013-11-06 20:22:00,43.2,39.2,29.96,NW,308,8.5,11.1,86,0.00,,,0.12,0.00,VWS V14.01,2013-11-07 01:22:00,
2013-11-06 20:25:00,43.1,39.3,29.96,NW,307,11.2,11.2,86,0.00,,,0.12,0.00,VWS V14.01,2013-11-07 01:25:00,
2013-11-06 20:26:00,43.3,38.9,29.96,NW,323,14.1,14.1,85,0.00,,,0.12,0.73,VWS V14.01,2013-11-07 01:26:00,
2013-11-06 20:27:00,43.1,38.8,29.97,NW,317,10.2,11.2,85,0.00,,,0.12,0.43,VWS V14.01,2013-11-07 01:27:00,
2013-11-06 20:30:00,43.2,38.5,29.96,NW,309,15.2,18.2,83,0.00,,,0.12,0.00,VWS V14.01,2013-11-07 01:30:00,
2013-11-06 20:31:00,43.1,38.4,29.96,WNW,297,12.8,18.2,84,0.00,,,0.12,0.00,VWS V14.01,2013-11-07 01:31:00,
2013-11-06 20:32:00,43.2,38.5,29.96,NW,320,17.7,17.7,84,0.00,,,0.12,0.00,VWS V14.01,2013-11-07 01:32:00,
2013-11-06 20:33:00,43.1,38.3,29.96,WNW,299,12.4,17.7,83,0.00,,,0.12,0.00,VWS V14.01,2013-11-07 01:33:00,
2013-11-06 20:35:00,43.2,38.4,29.99,NW,316,15.5,15.5,83,0.00,,,0.12,0.00,VWS V14.01,2013-11-07 01:35:00,
2013-11-06 20:37:00,43.0,38.2,29.96,NW,308,12.6,12.6,83,0.00,,,0.12,0.00,VWS V14.01,2013-11-07 01:37:00,
2013-11-06 20:38:00,43.1,38.4,29.96,WNW,303,14.6,14.6,83,0.00,,,0.12,0.43,VWS V14.01,2013-11-07 01:38:00,
2013-11-06 20:39:00,43.1,38.4,29.97,NNW,327,16.4,16.4,83,0.00,,,0.12,0.00,VWS V14.01,2013-11-07 01:39:00,
2013-11-06 20:41:00,43.2,38.1,29.98,NW,325,17.7,17.7,82,0.00,,,0.12,0.43,VWS V14.01,2013-11-07 01:41:00,
2013-11-06 20:44:00,43.1,38.3,29.98,WNW,293,14.3,15.2,83,0.00,,,0.12,0.00,VWS V14.01,2013-11-07 01:44:00,
2013-11-06 20:45:00,43.1,38.4,29.98,WNW,302,14.0,14.3,83,0.00,,,0.12,0.00,VWS V14.01,2013-11-07 01:45:00,
2013-11-06 20:46:00,43.1,38.5,29.99,WNW,297,13.8,14.0,84,0.00,,,0.12,0.00,VWS V14.01,2013-11-07 01:46:00,
2013-11-06 20:47:00,43.2,38.5,29.99,NW,305,16.4,16.4,84,0.00,,,0.12,0.00,VWS V14.01,2013-11-07 01:47:00,
2013-11-06 20:49:00,42.9,38.6,29.99,NNW,328,9.2,12.3,84,0.00,,,0.12,0.00,VWS V14.01,2013-11-07 01:49:00,
2013-11-06 20:50:00,43.0,38.6,29.98,NW,320,11.9,12.3,84,0.00,,,0.12,0.43,VWS V14.01,2013-11-07 01:50:00,
2013-11-06 20:52:00,43.1,38.6,29.99,NW,317,16.5,16.5,84,0.00,,,0.12,0.00,VWS V14.01,2013-11-07 01:52:00,
2013-11-06 20:53:00,43.0,38.5,29.99,NW,312,12.4,16.5,84,0.00,,,0.12,0.43,VWS V14.01,2013-11-07 01:53:00,
2013-11-06 20:55:00,42.9,38.4,29.98,NW,308,11.1,14.6,84,0.00,,,0.12,0.43,VWS V14.01,2013-11-07 01:55:00,
2013-11-06 20:56:00,42.9,38.3,29.98,NW,306,13.6,13.6,84,0.00,,,0.12,0.00,VWS V14.01,2013-11-07 01:56:00,
2013-11-06 20:59:00,42.9,38.1,29.97,NW,323,13.8,20.3,83,0.00,,,0.12,0.43,VWS V14.01,2013-11-07 01:59:00,
2013-11-06 21:00:00,42.9,38.1,29.97,NW,316,11.4,13.8,83,0.00,,,0.12,0.00,VWS V14.01,2013-11-07 02:00:00,
2013-11-06 21:01:00,42.9,38.1,29.96,NNW,335,12.3,12.3,83,0.00,,,0.12,0.00,VWS V14.01,2013-11-07 02:01:00,
2013-11-06 21:02:00,42.8,38.0,29.97,NW,319,13.8,13.8,83,0.00,,,0.12,0.00,VWS V14.01,2013-11-07 02:02:00,
2013-11-06 21:04:00,42.7,38.3,29.97,NNW,331,10.7,13.8,84,0.00,,,0.12,0.00,VWS V14.01,2013-11-07 02:04:00,
2013-11-06 21:06:00,42.8,38.2,29.98,WNW,294,11.7,13.8,83,0.00,,,0.12,0.00,VWS V14.01,2013-11-07 02:06:00,
2013-11-06 21:07:00,42.7,38.2,29.97,NNW,335,9.2,13.8,84,0.00,,,0.12,0.00,VWS V14.01,2013-11-07 02:07:00,
2013-11-06 21:09:00,42.8,38.3,29.96,NW,321,11.6,13.8,84,0.00,,,0.12,0.00,VWS V14.01,2013-11-07 02:09:00,
2013-11-06 21:10:00,42.8,38.3,29.96,NW,321,11.6,13.8,84,0.00,,,0.12,0.00,VWS V14.01,2013-11-07 02:10:00,
2013-11-06 21:12:00,42.7,38.0,29.97,NNW,338,10.4,15.7,83,0.00,,,0.12,0.00,VWS V14.01,2013-11-07 02:12:00,
2013-11-06 21:13:00,42.8,38.2,29.97,NW,307,12.6,15.7,84,0.00,,,0.12,0.00,VWS V14.01,2013-11-07 02:13:00,
2013-11-06 21:15:00,42.8,37.9,29.97,NW,319,17.4,17.4,83,0.00,,,0.12,0.00,VWS V14.01,2013-11-07 02:15:00,
2013-11-06 21:16:00,42.8,37.8,29.98,NW,305,14.3,17.4,83,0.00,,,0.12,0.00,VWS V14.01,2013-11-07 02:16:00,
2013-11-06 21:17:00,42.7,37.9,29.98,NNW,331,12.1,17.4,83,0.00,,,0.12,0.00,VWS V14.01,2013-11-07 02:17:00,
2013-11-06 21:18:00,42.7,37.9,29.98,NNW,331,12.1,17.4,83,0.00,,,0.12,0.00,VWS V14.01,2013-11-07 02:18:00,
2013-11-06 21:19:00,42.6,37.8,29.98,NW,311,9.5,17.4,83,0.00,,,0.12,0.43,VWS V14.01,2013-11-07 02:19:00,
2013-11-06 21:22:00,42.7,37.7,29.97,WNW,302,16.4,19.3,82,0.00,,,0.12,0.00,VWS V14.01,2013-11-07 02:22:00,
2013-11-06 21:23:00,42.6,37.6,29.97,NW,308,12.3,19.3,82,0.00,,,0.12,0.00,VWS V14.01,2013-11-07 02:23:00,
2013-11-06 21:24:00,42.6,37.7,29.97,NE,43,6.1,19.3,83,0.00,,,0.12,0.00,VWS V14.01,2013-11-07 02:24:00,
2013-11-06 21:25:00,42.5,37.7,29.97,NW,321,6.9,19.3,83,0.00,,,0.12,0.00,VWS V14.01,2013-11-07 02:25:00,
2013-11-06 21:28:00,42.4,38.0,29.97,North,350,10.5,19.3,84,0.00,,,0.12,0.00,VWS V14.01,2013-11-07 02:28:00,
2013-11-06 21:29:00,42.6,38.2,29.97,North,360,13.8,19.3,84,0.00,,,0.12,0.00,VWS V14.01,2013-11-07 02:29:00,
2013-11-06 21:31:00,42.4,38.2,29.98,NW,304,9.9,19.3,85,0.00,,,0.12,0.12,VWS V14.01,2013-11-07 02:31:00,
2013-11-06 21:35:00,42.5,38.5,29.98,WNW,297,13.1,19.3,85,0.00,,,0.12,0.00,VWS V14.01,2013-11-07 02:35:00,
2013-11-06 21:36:00,42.4,38.5,29.98,NW,323,14.0,19.3,86,0.00,,,0.12,0.00,VWS V14.01,2013-11-07 02:36:00,
2013-11-06 21:37:00,42.4,38.5,29.98,NW,323,14.0,19.3,86,0.00,,,0.12,0.00,VWS V14.01,2013-11-07 02:37:00,
2013-11-06 21:38:00,42.4,38.7,29.99,North,352,11.4,19.3,87,0.00,,,0.12,0.00,VWS V14.01,2013-11-07 02:38:00,
2013-11-06 21:39:00,42.3,38.8,29.98,NW,310,9.5,19.3,87,0.00,,,0.12,0.12,VWS V14.01,2013-11-07 02:39:00,
2013-11-06 21:42:00,42.2,39.0,29.98,WNW,302,6.9,19.3,88,0.00,,,0.12,0.43,VWS V14.01,2013-11-07 02:42:00,
2013-11-06 21:43:00,42.2,39.0,29.98,WNW,302,6.9,19.3,88,0.00,,,0.12,0.43,VWS V14.01,2013-11-07 02:43:00,
2013-11-06 21:44:00,42.3,39.2,29.97,NW,326,10.0,19.3,89,0.00,,,0.12,0.12,VWS V14.01,2013-11-07 02:44:00,
2013-11-06 21:46:00,42.2,39.2,29.98,NW,325,6.8,19.3,89,0.00,,,0.12,0.06,VWS V14.01,2013-11-07 02:46:00,
2013-11-06 21:48:00,42.0,39.3,29.96,NW,320,9.0,19.3,90,0.00,,,0.12,0.00,VWS V14.01,2013-11-07 02:48:00,
2013-11-06 21:49:00,42.0,39.5,29.98,WNW,295,7.1,19.3,91,0.00,,,0.12,0.43,VWS V14.01,2013-11-07 02:49:00,
2013-11-06 21:50:00,42.1,39.6,29.99,NW,305,9.3,19.3,91,0.00,,,0.12,0.43,VWS V14.01,2013-11-07 02:50:00,
2013-11-06 21:51:00,42.1,39.7,29.97,WNW,289,9.5,19.3,91,0.00,,,0.12,0.00,VWS V14.01,2013-11-07 02:51:00,
2013-11-06 21:52:00,42.1,39.6,29.98,NW,322,11.1,19.3,91,0.00,,,0.12,0.00,VWS V14.01,2013-11-07 02:52:00,
2013-11-06 21:53:00,42.2,39.6,29.99,NNW,332,9.7,19.3,91,0.00,,,0.12,0.00,VWS V14.01,2013-11-07 02:53:00,
2013-11-06 21:55:00,42.3,39.5,29.98,NW,313,14.3,19.3,90,0.00,,,0.12,0.00,VWS V14.01,2013-11-07 02:55:00,
2013-11-06 21:57:00,42.2,39.4,29.99,NNW,328,12.4,19.3,90,0.00,,,0.12,0.00,VWS V14.01,2013-11-07 02:57:00,
2013-11-06 21:58:00,41.9,39.2,29.99,North,351,13.5,19.3,90,0.00,,,0.12,0.00,VWS V14.01,2013-11-07 02:58:00,
2013-11-06 22:00:00,41.9,39.5,29.99,NW,322,11.2,19.3,91,0.00,,,0.12,0.00,VWS V14.01,2013-11-07 03:00:00,
2013-11-06 22:02:00,41.9,39.8,30.00,NNW,330,10.5,19.3,92,0.00,,,0.12,0.00,VWS V14.01,2013-11-07 03:02:00,
2013-11-06 22:05:00,42.1,39.7,30.00,NW,305,10.9,11.4,91,0.00,,,0.12,0.73,VWS V14.01,2013-11-07 03:05:00,
2013-11-06 22:06:00,42.2,40.1,30.01,WNW,297,9.0,10.9,92,0.00,,,0.12,0.00,VWS V14.01,2013-11-07 03:06:00,
2013-11-06 22:07:00,41.9,39.8,30.01,NW,311,8.1,8.3,92,0.00,,,0.12,0.43,VWS V14.01,2013-11-07 03:07:00,
2013-11-06 22:08:00,41.9,39.8,30.01,West,263,6.4,8.1,92,0.00,,,0.12,0.00,VWS V14.01,2013-11-07 03:08:00,
2013-11-06 22:09:00,41.3,39.5,30.00,NW,309,8.8,8.8,93,0.00,,,0.12,0.00,VWS V14.01,2013-11-07 03:09:00,
2013-11-06 22:11:00,41.2,39.7,30.01,NW,304,8.3,9.9,94,0.00,,,0.12,0.00,VWS V14.01,2013-11-07 03:11:00,
2013-11-06 22:12:00,41.1,39.8,30.00,NW,314,11.7,11.7,95,0.00,,,0.12,0.00,VWS V14.01,2013-11-07 03:12:00,
2013-11-06 22:13:00,41.3,40.1,30.00,WNW,293,10.0,11.7,95,0.00,,,0.12,0.00,VWS V14.01,2013-11-07 03:13:00,
2013-11-06 22:14:00,41.3,40.2,30.01,NW,304,6.6,10.0,96,0.00,,,0.12,0.00,VWS V14.01,2013-11-07 03:14:00,
2013-11-06 22:15:00,41.3,40.2,30.00,NW,310,9.2,9.2,96,0.00,,,0.12,0.00,VWS V14.01,2013-11-07 03:15:00,
2013-11-06 22:16:00,41.1,40.2,30.01,NW,313,6.9,6.9,96,0.00,,,0.12,0.00,VWS V14.01,2013-11-07 03:16:00,
2013-11-06 22:17:00,41.2,40.4,30.01,NW,325,10.9,10.9,97,0.00,,,0.12,0.00,VWS V14.01,2013-11-07 03:17:00,
2013-11-06 22:19:00,41.2,40.5,30.01,WNW,291,9.3,9.9,97,0.00,,,0.12,0.43,VWS V14.01,2013-11-07 03:19:00,
2013-11-06 22:20:00,41.2,40.5,30.01,WNW,291,9.3,9.9,97,0.00,,,0.12,0.43,VWS V14.01,2013-11-07 03:20:00,
2013-11-06 22:22:00,41.1,40.5,30.00,WNW,282,10.4,11.1,98,0.00,,,0.12,0.00,VWS V14.01,2013-11-07 03:22:00,
2013-11-06 22:23:00,40.9,40.4,30.01,NW,316,8.8,10.4,98,0.00,,,0.12,0.00,VWS V14.01,2013-11-07 03:23:00,
2013-11-06 22:26:00,41.0,40.6,30.01,NNW,330,6.4,6.4,99,0.00,,,0.12,0.00,VWS V14.01,2013-11-07 03:26:00,
2013-11-06 22:27:00,40.9,40.5,30.01,NNW,332,8.7,8.7,99,0.00,,,0.12,0.00,VWS V14.01,2013-11-07 03:27:00,
2013-11-06 22:28:00,40.8,40.5,30.02,NNW,340,8.3,8.7,99,0.00,,,0.12,0.00,VWS V14.01,2013-11-07 03:28:00,
2013-11-06 22:32:00,40.8,40.5,30.01,NW,326,9.2,9.2,99,0.00,,,0.12,0.00,VWS V14.01,2013-11-07 03:32:00,
2013-11-06 22:33:00,40.7,40.5,30.01,North,352,9.2,9.2,99,0.00,,,0.12,0.73,VWS V14.01,2013-11-07 03:33:00,
2013-11-06 22:34:00,40.8,40.5,30.01,NW,308,8.3,9.2,99,0.00,,,0.12,0.00,VWS V14.01,2013-11-07 03:34:00,
2013-11-06 22:38:00,40.9,40.5,30.01,NW,309,10.9,11.4,99,0.00,,,0.12,0.00,VWS V14.01,2013-11-07 03:38:00,
2013-11-06 22:39:00,40.8,40.1,30.01,NNW,343,8.0,12.1,98,0.00,,,0.12,0.00,VWS V14.01,2013-11-07 03:39:00,
2013-11-06 22:40:00,40.8,39.8,30.01,WNW,301,9.7,10.4,96,0.00,,,0.12,0.00,VWS V14.01,2013-11-07 03:40:00,
2013-11-06 22:42:00,40.8,39.2,30.01,NW,310,6.4,9.7,94,0.00,,,0.12,0.00,VWS V14.01,2013-11-07 03:42:00,
2013-11-06 22:43:00,40.8,39.0,30.01,NNW,327,10.0,10.0,93,0.00,,,0.12,0.00,VWS V14.01,2013-11-07 03:43:00,
2013-11-06 22:44:00,40.5,38.2,30.01,NW,323,8.0,8.3,91,0.00,,,0.12,0.00,VWS V14.01,2013-11-07 03:44:00,
2013-11-06 22:45:00,40.8,38.3,30.01,NW,309,8.1,8.1,91,0.00,,,0.12,0.00,VWS V14.01,2013-11-07 03:45:00,
2013-11-06 22:47:00,40.4,37.8,29.99,NW,312,1.3,3.0,90,0.00,,,0.12,0.00,VWS V14.01,2013-11-07 03:47:00,
2013-11-06 22:49:00,40.5,37.9,30.01,NW,317,6.3,6.3,90,0.00,,,0.12,0.43,VWS V14.01,2013-11-07 03:49:00,
2013-11-06 22:50:00,40.4,37.7,30.01,WNW,292,4.4,4.9,90,0.00,,,0.12,0.00,VWS V14.01,2013-11-07 03:50:00,
2013-11-06 22:51:00,40.3,37.7,30.01,NW,317,7.6,7.6,90,0.00,,,0.12,0.00,VWS V14.01,2013-11-07 03:51:00,
2013-11-06 22:52:00,40.6,37.6,30.01,NW,326,8.8,8.8,89,0.00,,,0.12,0.73,VWS V14.01,2013-11-07 03:52:00,
2013-11-06 22:54:00,40.8,37.6,30.01,NW,325,10.9,10.9,88,0.00,,,0.12,0.06,VWS V14.01,2013-11-07 03:54:00,
2013-11-06 22:56:00,41.0,36.1,30.01,NW,323,9.7,11.2,83,0.00,,,0.12,0.00,VWS V14.01,2013-11-07 03:56:00,
2013-11-06 22:57:00,41.2,37.4,30.02,North,350,8.5,8.5,86,0.00,,,0.12,0.00,VWS V14.01,2013-11-07 03:57:00,
2013-11-06 22:58:00,41.3,37.3,30.02,NW,319,12.6,12.6,86,0.00,,,0.12,0.00,VWS V14.01,2013-11-07 03:58:00,
2013-11-06 22:59:00,41.5,37.2,30.02,NW,316,8.5,11.6,85,0.00,,,0.12,0.00,VWS V14.01,2013-11-07 03:59:00,
2013-11-06 23:00:00,41.7,37.4,30.01,NW,315,12.9,12.9,84,0.00,,,0.12,0.00,VWS V14.01,2013-11-07 04:00:00,
2013-11-06 23:01:00,41.8,37.3,30.02,NW,309,12.8,12.8,84,0.00,,,0.12,0.00,VWS V14.01,2013-11-07 04:01:00,
2013-11-06 23:03:00,41.9,37.0,30.03,NW,311,12.1,13.6,83,0.00,,,0.12,0.00,VWS V14.01,2013-11-07 04:03:00,
2013-11-06 23:04:00,41.6,36.8,30.03,NW,312,9.2,9.2,83,0.00,,,0.12,0.00,VWS V14.01,2013-11-07 04:04:00,
2013-11-06 23:05:00,41.7,36.9,30.03,NW,321,9.3,11.4,83,0.00,,,0.12,0.00,VWS V14.01,2013-11-07 04:05:00,
2013-11-06 23:07:00,41.5,37.1,30.03,NNW,328,6.6,6.6,84,0.00,,,0.12,0.00,VWS V14.01,2013-11-07 04:07:00,
2013-11-06 23:09:00,41.7,37.3,30.03,NW,317,5.7,7.3,84,0.00,,,0.12,0.73,VWS V14.01,2013-11-07 04:09:00,
2013-11-06 23:10:00,41.7,37.2,30.04,NW,319,9.3,9.3,84,0.00,,,0.12,0.00,VWS V14.01,2013-11-07 04:10:00,
2013-11-06 23:12:00,41.7,37.2,30.04,NW,323,6.1,8.8,84,0.00,,,0.12,0.00,VWS V14.01,2013-11-07 04:12:00,
2013-11-06 23:13:00,41.5,37.2,30.04,WNW,294,5.1,6.9,85,0.00,,,0.12,0.00,VWS V14.01,2013-11-07 04:13:00,
2013-11-06 23:14:00,41.5,37.2,30.04,WNW,294,5.1,6.9,85,0.00,,,0.12,0.00,VWS V14.01,2013-11-07 04:14:00,
2013-11-06 23:15:00,41.7,37.2,30.03,WNW,303,10.5,10.5,84,0.00,,,0.12,0.06,VWS V14.01,2013-11-07 04:15:00,
2013-11-06 23:16:00,41.8,37.1,30.04,NNW,329,8.1,11.1,83,0.00,,,0.12,0.00,VWS V14.01,2013-11-07 04:16:00,
2013-11-06 23:19:00,41.7,36.8,30.03,NW,326,5.1,5.1,83,0.00,,,0.12,0.00,VWS V14.01,2013-11-07 04:19:00,
2013-11-06 23:20:00,41.9,37.0,30.03,NW,308,7.8,7.8,82,0.00,,,0.12,0.12,VWS V14.01,2013-11-07 04:20:00,
2013-11-06 23:21:00,41.9,36.7,30.03,NW,317,8.7,13.3,82,0.00,,,0.12,0.00,VWS V14.01,2013-11-07 04:21:00,
2013-11-06 23:26:00,41.9,36.8,30.02,North,349,5.2,5.2,82,0.00,,,0.12,0.00,VWS V14.01,2013-11-07 04:26:00,
2013-11-06 23:27:00,42.0,36.6,30.02,North,350,6.6,6.6,81,0.00,,,0.12,0.00,VWS V14.01,2013-11-07 04:27:00,
2013-11-06 23:28:00,42.0,36.6,30.02,North,350,6.6,6.6,81,0.00,,,0.12,0.00,VWS V14.01,2013-11-07 04:28:00,
2013-11-06 23:30:00,41.6,36.4,30.02,NW,318,3.7,6.1,81,0.00,,,0.12,0.00,VWS V14.01,2013-11-07 04:30:00,
2013-11-06 23:31:00,41.6,36.4,30.02,NW,318,3.7,6.1,81,0.00,,,0.12,0.00,VWS V14.01,2013-11-07 04:31:00,
2013-11-06 23:32:00,41.8,36.4,30.02,NW,316,9.0,9.0,81,0.00,,,0.12,0.00,VWS V14.01,2013-11-07 04:32:00,
2013-11-06 23:34:00,41.9,36.4,30.02,NNW,328,9.0,9.3,81,0.00,,,0.12,0.00,VWS V14.01,2013-11-07 04:34:00,
2013-11-06 23:35:00,41.7,36.2,30.02,NW,306,4.9,9.0,81,0.00,,,0.12,0.00,VWS V14.01,2013-11-07 04:35:00,
2013-11-06 23:36:00,41.6,36.3,30.01,NW,324,5.6,5.6,81,0.00,,,0.12,0.00,VWS V14.01,2013-11-07 04:36:00,
2013-11-06 23:37:00,42.0,36.6,30.02,NW,322,6.3,6.3,81,0.00,,,0.12,0.00,VWS V14.01,2013-11-07 04:37:00,
2013-11-06 23:38:00,41.8,36.4,30.02,NW,317,6.3,6.3,81,0.00,,,0.12,0.00,VWS V14.01,2013-11-07 04:38:00,
2013-11-06 23:39:00,41.9,36.4,30.02,North,351,3.4,6.3,81,0.00,,,0.12,0.00,VWS V14.01,2013-11-07 04:39:00,
2013-11-06 23:40:00,41.7,36.3,30.01,NW,326,6.3,6.3,81,0.00,,,0.12,0.00,VWS V14.01,2013-11-07 04:40:00,
2013-11-06 23:41:00,41.7,36.3,30.02,NW,312,7.5,7.5,81,0.00,,,0.12,0.00,VWS V14.01,2013-11-07 04:41:00,
2013-11-06 23:42:00,41.8,36.6,30.02,West,280,8.1,8.1,82,0.00,,,0.12,0.00,VWS V14.01,2013-11-07 04:42:00,
2013-11-06 23:44:00,41.9,36.8,30.03,NW,326,6.3,8.3,82,0.00,,,0.12,0.00,VWS V14.01,2013-11-07 04:44:00,
2013-11-06 23:46:00,41.6,36.8,30.02,NW,313,5.6,5.6,83,0.00,,,0.12,0.43,VWS V14.01,2013-11-07 04:46:00,
2013-11-06 23:48:00,41.9,37.2,30.01,NW,318,7.6,7.6,83,0.00,,,0.12,0.00,VWS V14.01,2013-11-07 04:48:00,
2013-11-06 23:49:00,41.6,36.9,30.01,NNW,332,4.7,7.6,83,0.00,,,0.12,0.00,VWS V14.01,2013-11-07 04:49:00,
2013-11-06 23:50:00,41.7,36.9,30.01,NW,320,6.3,6.3,83,0.00,,,0.12,0.00,VWS V14.01,2013-11-07 04:50:00,
2013-11-06 23:51:00,41.8,36.9,30.01,NNW,329,4.9,4.9,83,0.00,,,0.12,0.00,VWS V14.01,2013-11-07 04:51:00,
2013-11-06 23:54:00,41.7,36.9,30.02,NW,314,5.2,5.2,83,0.00,,,0.12,0.12,VWS V14.01,2013-11-07 04:54:00,
2013-11-06 23:55:00,41.8,36.8,30.02,NE,43,4.5,5.2,82,0.00,,,0.12,0.00,VWS V14.01,2013-11-07 04:55:00,
2013-11-06 23:58:00,41.6,36.6,30.01,NW,326,7.6,9.2,82,0.00,,,0.12,0.00,VWS V14.01,2013-11-07 04:58:00,
2013-11-06 23:59:00,41.8,36.8,30.01,NNW,327,7.6,7.6,82,0.00,,,0.12,0.00,VWS V14.01,2013-11-07 04:59:00,